<?xml version="1.0" encoding="UTF-8" standalone="no" ?>
<gpx xmlns="http://www.topografix.com/GPX/1/1" xmlns:xsi="http://www.w3.org/2001/XMLSchema-instance" xsi:schemaLocation="http://www.topografix.com/GPX/1/1 http://www.topografix.com/GPX/1/1/gpx.xsd" version="1.1" creator="VisuGPX - https://www.visugpx.com">
  <metadata>
    <name>83-M-Lorgues</name>
    <desc><![CDATA[83-M-Lorgues : Château de Berne]]></desc>
  </metadata>
  <trk>
    <name><![CDATA[2017-12-06-M-berne]]></name>
    <trkseg>
      <trkpt lat="43.49262" lon="6.36826">
        <ele>200.4</ele>
        <time>2017-12-06T12:32:35Z</time>
      </trkpt>
      <trkpt lat="43.49269" lon="6.36821">
        <ele>201</ele>
        <time>2017-12-06T12:32:42Z</time>
      </trkpt>
      <trkpt lat="43.49277" lon="6.36818">
        <ele>201.4</ele>
        <time>2017-12-06T12:32:49Z</time>
      </trkpt>
      <trkpt lat="43.49285" lon="6.36816">
        <ele>201.9</ele>
        <time>2017-12-06T12:32:56Z</time>
      </trkpt>
      <trkpt lat="43.49286" lon="6.36816">
        <ele>202</ele>
        <time>2017-12-06T12:32:57Z</time>
      </trkpt>
      <trkpt lat="43.49301" lon="6.36812">
        <ele>203</ele>
        <time>2017-12-06T12:33:16Z</time>
      </trkpt>
      <trkpt lat="43.49309" lon="6.36811">
        <ele>203.7</ele>
        <time>2017-12-06T12:33:25Z</time>
      </trkpt>
      <trkpt lat="43.49317" lon="6.36811">
        <ele>203.9</ele>
        <time>2017-12-06T12:33:31Z</time>
      </trkpt>
      <trkpt lat="43.49325" lon="6.36809">
        <ele>204.1</ele>
        <time>2017-12-06T12:33:37Z</time>
      </trkpt>
      <trkpt lat="43.49332" lon="6.36803">
        <ele>204.6</ele>
        <time>2017-12-06T12:33:44Z</time>
      </trkpt>
      <trkpt lat="43.4934" lon="6.368">
        <ele>204.8</ele>
        <time>2017-12-06T12:33:52Z</time>
      </trkpt>
      <trkpt lat="43.49349" lon="6.36796">
        <ele>205</ele>
        <time>2017-12-06T12:33:59Z</time>
      </trkpt>
      <trkpt lat="43.4935" lon="6.36796">
        <ele>205</ele>
        <time>2017-12-06T12:34:00Z</time>
      </trkpt>
      <trkpt lat="43.49365" lon="6.36789">
        <ele>205.8</ele>
        <time>2017-12-06T12:34:13Z</time>
      </trkpt>
      <trkpt lat="43.49373" lon="6.36787">
        <ele>206.2</ele>
        <time>2017-12-06T12:34:20Z</time>
      </trkpt>
      <trkpt lat="43.49381" lon="6.36784">
        <ele>206.4</ele>
        <time>2017-12-06T12:34:28Z</time>
      </trkpt>
      <trkpt lat="43.49389" lon="6.3678">
        <ele>206.6</ele>
        <time>2017-12-06T12:34:35Z</time>
      </trkpt>
      <trkpt lat="43.49397" lon="6.36778">
        <ele>207</ele>
        <time>2017-12-06T12:34:43Z</time>
      </trkpt>
      <trkpt lat="43.49406" lon="6.36777">
        <ele>207.5</ele>
        <time>2017-12-06T12:34:50Z</time>
      </trkpt>
      <trkpt lat="43.49414" lon="6.36775">
        <ele>207.8</ele>
        <time>2017-12-06T12:34:58Z</time>
      </trkpt>
      <trkpt lat="43.49423" lon="6.36774">
        <ele>208.3</ele>
        <time>2017-12-06T12:35:07Z</time>
      </trkpt>
      <trkpt lat="43.49423" lon="6.36773">
        <ele>208.3</ele>
        <time>2017-12-06T12:35:08Z</time>
      </trkpt>
      <trkpt lat="43.49439" lon="6.36765">
        <ele>209.1</ele>
        <time>2017-12-06T12:35:25Z</time>
      </trkpt>
      <trkpt lat="43.49446" lon="6.36761">
        <ele>209.4</ele>
        <time>2017-12-06T12:35:31Z</time>
      </trkpt>
      <trkpt lat="43.49454" lon="6.36758">
        <ele>210</ele>
        <time>2017-12-06T12:35:36Z</time>
      </trkpt>
      <trkpt lat="43.49462" lon="6.36755">
        <ele>210.4</ele>
        <time>2017-12-06T12:35:42Z</time>
      </trkpt>
      <trkpt lat="43.4947" lon="6.36753">
        <ele>210.9</ele>
        <time>2017-12-06T12:35:48Z</time>
      </trkpt>
      <trkpt lat="43.49478" lon="6.36749">
        <ele>211.3</ele>
        <time>2017-12-06T12:35:54Z</time>
      </trkpt>
      <trkpt lat="43.49486" lon="6.36745">
        <ele>211.6</ele>
        <time>2017-12-06T12:36:01Z</time>
      </trkpt>
      <trkpt lat="43.49495" lon="6.36743">
        <ele>212.1</ele>
        <time>2017-12-06T12:36:08Z</time>
      </trkpt>
      <trkpt lat="43.49496" lon="6.36743">
        <ele>212.1</ele>
        <time>2017-12-06T12:36:09Z</time>
      </trkpt>
      <trkpt lat="43.49512" lon="6.36738">
        <ele>212.9</ele>
        <time>2017-12-06T12:36:22Z</time>
      </trkpt>
      <trkpt lat="43.4952" lon="6.36737">
        <ele>213</ele>
        <time>2017-12-06T12:36:28Z</time>
      </trkpt>
      <trkpt lat="43.49529" lon="6.36735">
        <ele>213.5</ele>
        <time>2017-12-06T12:36:35Z</time>
      </trkpt>
      <trkpt lat="43.49537" lon="6.36731">
        <ele>213.9</ele>
        <time>2017-12-06T12:36:42Z</time>
      </trkpt>
      <trkpt lat="43.49544" lon="6.36728">
        <ele>214.5</ele>
        <time>2017-12-06T12:36:48Z</time>
      </trkpt>
      <trkpt lat="43.49552" lon="6.36726">
        <ele>215.2</ele>
        <time>2017-12-06T12:36:54Z</time>
      </trkpt>
      <trkpt lat="43.49561" lon="6.36723">
        <ele>215.6</ele>
        <time>2017-12-06T12:37:01Z</time>
      </trkpt>
      <trkpt lat="43.49569" lon="6.36722">
        <ele>215.8</ele>
        <time>2017-12-06T12:37:09Z</time>
      </trkpt>
      <trkpt lat="43.4957" lon="6.36722">
        <ele>215.9</ele>
        <time>2017-12-06T12:37:10Z</time>
      </trkpt>
      <trkpt lat="43.49585" lon="6.36719">
        <ele>216.2</ele>
        <time>2017-12-06T12:37:23Z</time>
      </trkpt>
      <trkpt lat="43.49594" lon="6.36716">
        <ele>216.7</ele>
        <time>2017-12-06T12:37:30Z</time>
      </trkpt>
      <trkpt lat="43.49602" lon="6.36713">
        <ele>217.4</ele>
        <time>2017-12-06T12:37:37Z</time>
      </trkpt>
      <trkpt lat="43.4961" lon="6.3671">
        <ele>217.8</ele>
        <time>2017-12-06T12:37:44Z</time>
      </trkpt>
      <trkpt lat="43.49618" lon="6.36709">
        <ele>218</ele>
        <time>2017-12-06T12:37:51Z</time>
      </trkpt>
      <trkpt lat="43.49626" lon="6.36708">
        <ele>218.3</ele>
        <time>2017-12-06T12:37:59Z</time>
      </trkpt>
      <trkpt lat="43.49635" lon="6.36705">
        <ele>218.7</ele>
        <time>2017-12-06T12:38:06Z</time>
      </trkpt>
      <trkpt lat="43.49643" lon="6.36703">
        <ele>218.9</ele>
        <time>2017-12-06T12:38:14Z</time>
      </trkpt>
      <trkpt lat="43.49644" lon="6.36703">
        <ele>218.9</ele>
        <time>2017-12-06T12:38:15Z</time>
      </trkpt>
      <trkpt lat="43.49658" lon="6.36696">
        <ele>219.3</ele>
        <time>2017-12-06T12:38:27Z</time>
      </trkpt>
      <trkpt lat="43.49666" lon="6.36696">
        <ele>219.8</ele>
        <time>2017-12-06T12:38:35Z</time>
      </trkpt>
      <trkpt lat="43.49674" lon="6.36693">
        <ele>219.9</ele>
        <time>2017-12-06T12:38:41Z</time>
      </trkpt>
      <trkpt lat="43.49682" lon="6.36691">
        <ele>220.2</ele>
        <time>2017-12-06T12:38:49Z</time>
      </trkpt>
      <trkpt lat="43.4969" lon="6.36686">
        <ele>220.8</ele>
        <time>2017-12-06T12:38:56Z</time>
      </trkpt>
      <trkpt lat="43.49698" lon="6.36683">
        <ele>221.2</ele>
        <time>2017-12-06T12:39:02Z</time>
      </trkpt>
      <trkpt lat="43.49706" lon="6.36681">
        <ele>221.6</ele>
        <time>2017-12-06T12:39:09Z</time>
      </trkpt>
      <trkpt lat="43.49714" lon="6.36677">
        <ele>221.9</ele>
        <time>2017-12-06T12:39:15Z</time>
      </trkpt>
      <trkpt lat="43.49715" lon="6.36676">
        <ele>222</ele>
        <time>2017-12-06T12:39:16Z</time>
      </trkpt>
      <trkpt lat="43.49731" lon="6.36673">
        <ele>222.6</ele>
        <time>2017-12-06T12:39:29Z</time>
      </trkpt>
      <trkpt lat="43.49739" lon="6.36671">
        <ele>223.1</ele>
        <time>2017-12-06T12:39:37Z</time>
      </trkpt>
      <trkpt lat="43.49748" lon="6.36669">
        <ele>224</ele>
        <time>2017-12-06T12:39:44Z</time>
      </trkpt>
      <trkpt lat="43.49756" lon="6.36668">
        <ele>224.7</ele>
        <time>2017-12-06T12:39:51Z</time>
      </trkpt>
      <trkpt lat="43.49764" lon="6.36667">
        <ele>225.4</ele>
        <time>2017-12-06T12:39:57Z</time>
      </trkpt>
      <trkpt lat="43.49773" lon="6.36667">
        <ele>226.4</ele>
        <time>2017-12-06T12:40:04Z</time>
      </trkpt>
      <trkpt lat="43.49781" lon="6.36665">
        <ele>226.9</ele>
        <time>2017-12-06T12:40:13Z</time>
      </trkpt>
      <trkpt lat="43.49789" lon="6.36669">
        <ele>227.7</ele>
        <time>2017-12-06T12:40:23Z</time>
      </trkpt>
      <trkpt lat="43.4979" lon="6.3667">
        <ele>227.7</ele>
        <time>2017-12-06T12:40:24Z</time>
      </trkpt>
      <trkpt lat="43.49805" lon="6.36675">
        <ele>228.2</ele>
        <time>2017-12-06T12:41:13Z</time>
      </trkpt>
      <trkpt lat="43.49813" lon="6.36678">
        <ele>229.2</ele>
        <time>2017-12-06T12:41:22Z</time>
      </trkpt>
      <trkpt lat="43.49808" lon="6.36688">
        <ele>232.7</ele>
        <time>2017-12-06T12:41:49Z</time>
      </trkpt>
      <trkpt lat="43.49807" lon="6.36688">
        <ele>232.8</ele>
        <time>2017-12-06T12:41:50Z</time>
      </trkpt>
      <trkpt lat="43.49795" lon="6.36704">
        <ele>236.4</ele>
        <time>2017-12-06T12:42:17Z</time>
      </trkpt>
      <trkpt lat="43.49788" lon="6.36711">
        <ele>237.4</ele>
        <time>2017-12-06T12:42:25Z</time>
      </trkpt>
      <trkpt lat="43.49782" lon="6.36721">
        <ele>239.6</ele>
        <time>2017-12-06T12:42:34Z</time>
      </trkpt>
      <trkpt lat="43.49776" lon="6.36728">
        <ele>241.6</ele>
        <time>2017-12-06T12:42:47Z</time>
      </trkpt>
      <trkpt lat="43.4977" lon="6.36736">
        <ele>242.7</ele>
        <time>2017-12-06T12:42:55Z</time>
      </trkpt>
      <trkpt lat="43.49769" lon="6.36738">
        <ele>242.8</ele>
        <time>2017-12-06T12:42:56Z</time>
      </trkpt>
      <trkpt lat="43.4976" lon="6.36753">
        <ele>244.3</ele>
        <time>2017-12-06T12:43:06Z</time>
      </trkpt>
      <trkpt lat="43.49754" lon="6.36762">
        <ele>246</ele>
        <time>2017-12-06T12:43:15Z</time>
      </trkpt>
      <trkpt lat="43.49749" lon="6.36772">
        <ele>247.6</ele>
        <time>2017-12-06T12:43:24Z</time>
      </trkpt>
      <trkpt lat="43.49745" lon="6.36782">
        <ele>249.1</ele>
        <time>2017-12-06T12:43:32Z</time>
      </trkpt>
      <trkpt lat="43.4974" lon="6.36791">
        <ele>250.2</ele>
        <time>2017-12-06T12:43:40Z</time>
      </trkpt>
      <trkpt lat="43.49735" lon="6.36801">
        <ele>252.1</ele>
        <time>2017-12-06T12:43:49Z</time>
      </trkpt>
      <trkpt lat="43.4973" lon="6.36811">
        <ele>254.1</ele>
        <time>2017-12-06T12:43:58Z</time>
      </trkpt>
      <trkpt lat="43.49729" lon="6.36812">
        <ele>254.3</ele>
        <time>2017-12-06T12:43:59Z</time>
      </trkpt>
      <trkpt lat="43.4972" lon="6.36828">
        <ele>257.8</ele>
        <time>2017-12-06T12:44:17Z</time>
      </trkpt>
      <trkpt lat="43.49715" lon="6.36839">
        <ele>258.9</ele>
        <time>2017-12-06T12:44:25Z</time>
      </trkpt>
      <trkpt lat="43.49713" lon="6.36851">
        <ele>260.2</ele>
        <time>2017-12-06T12:44:33Z</time>
      </trkpt>
      <trkpt lat="43.49708" lon="6.3686">
        <ele>261.3</ele>
        <time>2017-12-06T12:44:42Z</time>
      </trkpt>
      <trkpt lat="43.49701" lon="6.36866">
        <ele>262.2</ele>
        <time>2017-12-06T12:44:49Z</time>
      </trkpt>
      <trkpt lat="43.49696" lon="6.36876">
        <ele>262.4</ele>
        <time>2017-12-06T12:44:55Z</time>
      </trkpt>
      <trkpt lat="43.49691" lon="6.36885">
        <ele>263.1</ele>
        <time>2017-12-06T12:45:03Z</time>
      </trkpt>
      <trkpt lat="43.4969" lon="6.36886">
        <ele>263.2</ele>
        <time>2017-12-06T12:45:04Z</time>
      </trkpt>
      <trkpt lat="43.49682" lon="6.36902">
        <ele>263.8</ele>
        <time>2017-12-06T12:45:16Z</time>
      </trkpt>
      <trkpt lat="43.49679" lon="6.36912">
        <ele>264.5</ele>
        <time>2017-12-06T12:45:23Z</time>
      </trkpt>
      <trkpt lat="43.49675" lon="6.36922">
        <ele>265.8</ele>
        <time>2017-12-06T12:45:30Z</time>
      </trkpt>
      <trkpt lat="43.49671" lon="6.36932">
        <ele>266.3</ele>
        <time>2017-12-06T12:45:37Z</time>
      </trkpt>
      <trkpt lat="43.49667" lon="6.36942">
        <ele>266.6</ele>
        <time>2017-12-06T12:45:45Z</time>
      </trkpt>
      <trkpt lat="43.49663" lon="6.36953">
        <ele>267.3</ele>
        <time>2017-12-06T12:45:53Z</time>
      </trkpt>
      <trkpt lat="43.49658" lon="6.36962">
        <ele>268.1</ele>
        <time>2017-12-06T12:46:01Z</time>
      </trkpt>
      <trkpt lat="43.49653" lon="6.36972">
        <ele>268.7</ele>
        <time>2017-12-06T12:46:10Z</time>
      </trkpt>
      <trkpt lat="43.49652" lon="6.36973">
        <ele>268.8</ele>
        <time>2017-12-06T12:46:11Z</time>
      </trkpt>
      <trkpt lat="43.49643" lon="6.3699">
        <ele>269.3</ele>
        <time>2017-12-06T12:46:24Z</time>
      </trkpt>
      <trkpt lat="43.49636" lon="6.36996">
        <ele>269.2</ele>
        <time>2017-12-06T12:46:32Z</time>
      </trkpt>
      <trkpt lat="43.49629" lon="6.37003">
        <ele>268.6</ele>
        <time>2017-12-06T12:46:40Z</time>
      </trkpt>
      <trkpt lat="43.49623" lon="6.3701">
        <ele>268.1</ele>
        <time>2017-12-06T12:46:46Z</time>
      </trkpt>
      <trkpt lat="43.49616" lon="6.37016">
        <ele>267.8</ele>
        <time>2017-12-06T12:46:54Z</time>
      </trkpt>
      <trkpt lat="43.49611" lon="6.37026">
        <ele>267.6</ele>
        <time>2017-12-06T12:47:15Z</time>
      </trkpt>
      <trkpt lat="43.49611" lon="6.37027">
        <ele>267.5</ele>
        <time>2017-12-06T12:47:16Z</time>
      </trkpt>
      <trkpt lat="43.49601" lon="6.37045">
        <ele>266.9</ele>
        <time>2017-12-06T12:47:42Z</time>
      </trkpt>
      <trkpt lat="43.49596" lon="6.37055">
        <ele>266.8</ele>
        <time>2017-12-06T12:48:05Z</time>
      </trkpt>
      <trkpt lat="43.49591" lon="6.37064">
        <ele>266.8</ele>
        <time>2017-12-06T12:48:19Z</time>
      </trkpt>
      <trkpt lat="43.49591" lon="6.37065">
        <ele>266.9</ele>
        <time>2017-12-06T12:48:20Z</time>
      </trkpt>
      <trkpt lat="43.49583" lon="6.37085">
        <ele>267.8</ele>
        <time>2017-12-06T12:48:39Z</time>
      </trkpt>
      <trkpt lat="43.49579" lon="6.37094">
        <ele>268.5</ele>
        <time>2017-12-06T12:48:51Z</time>
      </trkpt>
      <trkpt lat="43.49575" lon="6.37104">
        <ele>268.5</ele>
        <time>2017-12-06T12:49:00Z</time>
      </trkpt>
      <trkpt lat="43.49572" lon="6.37115">
        <ele>268.2</ele>
        <time>2017-12-06T12:49:09Z</time>
      </trkpt>
      <trkpt lat="43.49573" lon="6.37127">
        <ele>268.1</ele>
        <time>2017-12-06T12:49:19Z</time>
      </trkpt>
      <trkpt lat="43.49574" lon="6.3714">
        <ele>268.3</ele>
        <time>2017-12-06T12:49:37Z</time>
      </trkpt>
      <trkpt lat="43.49576" lon="6.37142">
        <ele>268.5</ele>
        <time>2017-12-06T12:49:38Z</time>
      </trkpt>
      <trkpt lat="43.49583" lon="6.3716">
        <ele>271.3</ele>
        <time>2017-12-06T12:50:00Z</time>
      </trkpt>
      <trkpt lat="43.4959" lon="6.37153">
        <ele>272.8</ele>
        <time>2017-12-06T12:50:11Z</time>
      </trkpt>
      <trkpt lat="43.49596" lon="6.37145">
        <ele>273.8</ele>
        <time>2017-12-06T12:50:20Z</time>
      </trkpt>
      <trkpt lat="43.49602" lon="6.37138">
        <ele>274.9</ele>
        <time>2017-12-06T12:50:30Z</time>
      </trkpt>
      <trkpt lat="43.49607" lon="6.37128">
        <ele>277.3</ele>
        <time>2017-12-06T12:50:48Z</time>
      </trkpt>
      <trkpt lat="43.49607" lon="6.37127">
        <ele>277.5</ele>
        <time>2017-12-06T12:50:49Z</time>
      </trkpt>
      <trkpt lat="43.49621" lon="6.3714">
        <ele>283.3</ele>
        <time>2017-12-06T12:51:21Z</time>
      </trkpt>
      <trkpt lat="43.4963" lon="6.37136">
        <ele>285.2</ele>
        <time>2017-12-06T12:51:33Z</time>
      </trkpt>
      <trkpt lat="43.49637" lon="6.37128">
        <ele>286.9</ele>
        <time>2017-12-06T12:51:43Z</time>
      </trkpt>
      <trkpt lat="43.49644" lon="6.37122">
        <ele>288.2</ele>
        <time>2017-12-06T12:51:52Z</time>
      </trkpt>
      <trkpt lat="43.49645" lon="6.37121">
        <ele>288.4</ele>
        <time>2017-12-06T12:51:53Z</time>
      </trkpt>
      <trkpt lat="43.49658" lon="6.37108">
        <ele>291.2</ele>
        <time>2017-12-06T12:52:11Z</time>
      </trkpt>
      <trkpt lat="43.49666" lon="6.37103">
        <ele>292.4</ele>
        <time>2017-12-06T12:52:20Z</time>
      </trkpt>
      <trkpt lat="43.49674" lon="6.371">
        <ele>293.6</ele>
        <time>2017-12-06T12:52:29Z</time>
      </trkpt>
      <trkpt lat="43.49682" lon="6.37094">
        <ele>294.6</ele>
        <time>2017-12-06T12:52:38Z</time>
      </trkpt>
      <trkpt lat="43.49689" lon="6.37088">
        <ele>295.5</ele>
        <time>2017-12-06T12:52:47Z</time>
      </trkpt>
      <trkpt lat="43.49697" lon="6.37086">
        <ele>297.7</ele>
        <time>2017-12-06T12:53:01Z</time>
      </trkpt>
      <trkpt lat="43.49698" lon="6.37086">
        <ele>297.8</ele>
        <time>2017-12-06T12:53:02Z</time>
      </trkpt>
      <trkpt lat="43.4971" lon="6.3707">
        <ele>299.5</ele>
        <time>2017-12-06T12:53:42Z</time>
      </trkpt>
      <trkpt lat="43.49717" lon="6.37065">
        <ele>299.5</ele>
        <time>2017-12-06T12:53:51Z</time>
      </trkpt>
      <trkpt lat="43.49723" lon="6.37057">
        <ele>299.3</ele>
        <time>2017-12-06T12:54:02Z</time>
      </trkpt>
      <trkpt lat="43.49724" lon="6.37056">
        <ele>299.4</ele>
        <time>2017-12-06T12:54:03Z</time>
      </trkpt>
      <trkpt lat="43.49736" lon="6.37042">
        <ele>299</ele>
        <time>2017-12-06T12:54:18Z</time>
      </trkpt>
      <trkpt lat="43.49744" lon="6.37035">
        <ele>299.7</ele>
        <time>2017-12-06T12:54:27Z</time>
      </trkpt>
      <trkpt lat="43.49751" lon="6.37034">
        <ele>300.4</ele>
        <time>2017-12-06T12:54:34Z</time>
      </trkpt>
      <trkpt lat="43.4976" lon="6.37031">
        <ele>301.4</ele>
        <time>2017-12-06T12:54:41Z</time>
      </trkpt>
      <trkpt lat="43.49768" lon="6.37029">
        <ele>302.6</ele>
        <time>2017-12-06T12:54:49Z</time>
      </trkpt>
      <trkpt lat="43.49776" lon="6.37023">
        <ele>304</ele>
        <time>2017-12-06T12:54:58Z</time>
      </trkpt>
      <trkpt lat="43.49783" lon="6.37019">
        <ele>304.6</ele>
        <time>2017-12-06T12:55:03Z</time>
      </trkpt>
      <trkpt lat="43.49784" lon="6.37019">
        <ele>304.7</ele>
        <time>2017-12-06T12:55:04Z</time>
      </trkpt>
      <trkpt lat="43.498" lon="6.37013">
        <ele>305.6</ele>
        <time>2017-12-06T12:55:18Z</time>
      </trkpt>
      <trkpt lat="43.49808" lon="6.3701">
        <ele>305.3</ele>
        <time>2017-12-06T12:55:26Z</time>
      </trkpt>
      <trkpt lat="43.49816" lon="6.37008">
        <ele>305.4</ele>
        <time>2017-12-06T12:55:34Z</time>
      </trkpt>
      <trkpt lat="43.49824" lon="6.37004">
        <ele>305.3</ele>
        <time>2017-12-06T12:55:41Z</time>
      </trkpt>
      <trkpt lat="43.49832" lon="6.37001">
        <ele>305.4</ele>
        <time>2017-12-06T12:55:48Z</time>
      </trkpt>
      <trkpt lat="43.4984" lon="6.36999">
        <ele>305.3</ele>
        <time>2017-12-06T12:55:56Z</time>
      </trkpt>
      <trkpt lat="43.49849" lon="6.36999">
        <ele>305.4</ele>
        <time>2017-12-06T12:56:05Z</time>
      </trkpt>
      <trkpt lat="43.4985" lon="6.36999">
        <ele>305.5</ele>
        <time>2017-12-06T12:56:06Z</time>
      </trkpt>
      <trkpt lat="43.49865" lon="6.37006">
        <ele>306.6</ele>
        <time>2017-12-06T12:56:25Z</time>
      </trkpt>
      <trkpt lat="43.49873" lon="6.37009">
        <ele>307.1</ele>
        <time>2017-12-06T12:56:31Z</time>
      </trkpt>
      <trkpt lat="43.49881" lon="6.37013">
        <ele>308.7</ele>
        <time>2017-12-06T12:56:45Z</time>
      </trkpt>
      <trkpt lat="43.49889" lon="6.37017">
        <ele>309.6</ele>
        <time>2017-12-06T12:56:58Z</time>
      </trkpt>
      <trkpt lat="43.49895" lon="6.37024">
        <ele>310.3</ele>
        <time>2017-12-06T12:57:04Z</time>
      </trkpt>
      <trkpt lat="43.49901" lon="6.3703">
        <ele>311.5</ele>
        <time>2017-12-06T12:57:11Z</time>
      </trkpt>
      <trkpt lat="43.49903" lon="6.37032">
        <ele>311.6</ele>
        <time>2017-12-06T12:57:12Z</time>
      </trkpt>
      <trkpt lat="43.49914" lon="6.37046">
        <ele>313.4</ele>
        <time>2017-12-06T12:57:26Z</time>
      </trkpt>
      <trkpt lat="43.4992" lon="6.37054">
        <ele>314.7</ele>
        <time>2017-12-06T12:57:35Z</time>
      </trkpt>
      <trkpt lat="43.49926" lon="6.37062">
        <ele>315.6</ele>
        <time>2017-12-06T12:57:43Z</time>
      </trkpt>
      <trkpt lat="43.49932" lon="6.3707">
        <ele>317</ele>
        <time>2017-12-06T12:57:52Z</time>
      </trkpt>
      <trkpt lat="43.49938" lon="6.37077">
        <ele>318</ele>
        <time>2017-12-06T12:57:59Z</time>
      </trkpt>
      <trkpt lat="43.49944" lon="6.37086">
        <ele>318.8</ele>
        <time>2017-12-06T12:58:06Z</time>
      </trkpt>
      <trkpt lat="43.49949" lon="6.37096">
        <ele>319.8</ele>
        <time>2017-12-06T12:58:18Z</time>
      </trkpt>
      <trkpt lat="43.49949" lon="6.37097">
        <ele>319.9</ele>
        <time>2017-12-06T12:58:19Z</time>
      </trkpt>
      <trkpt lat="43.49959" lon="6.37115">
        <ele>322.7</ele>
        <time>2017-12-06T12:58:57Z</time>
      </trkpt>
      <trkpt lat="43.49961" lon="6.37127">
        <ele>323.2</ele>
        <time>2017-12-06T12:59:08Z</time>
      </trkpt>
      <trkpt lat="43.49965" lon="6.37137">
        <ele>323.9</ele>
        <time>2017-12-06T12:59:23Z</time>
      </trkpt>
      <trkpt lat="43.49966" lon="6.37138">
        <ele>323.9</ele>
        <time>2017-12-06T12:59:24Z</time>
      </trkpt>
      <trkpt lat="43.49978" lon="6.37153">
        <ele>325.1</ele>
        <time>2017-12-06T12:59:48Z</time>
      </trkpt>
      <trkpt lat="43.49984" lon="6.37162">
        <ele>325.1</ele>
        <time>2017-12-06T12:59:59Z</time>
      </trkpt>
      <trkpt lat="43.49992" lon="6.37165">
        <ele>325.5</ele>
        <time>2017-12-06T13:00:44Z</time>
      </trkpt>
      <trkpt lat="43.49993" lon="6.37165">
        <ele>325.5</ele>
        <time>2017-12-06T13:00:45Z</time>
      </trkpt>
      <trkpt lat="43.49992" lon="6.37164">
        <ele>325.6</ele>
        <time>2017-12-06T13:01:32Z</time>
      </trkpt>
      <trkpt lat="43.49986" lon="6.37173">
        <ele>325.9</ele>
        <time>2017-12-06T13:01:56Z</time>
      </trkpt>
      <trkpt lat="43.49986" lon="6.37173">
        <ele>325.9</ele>
        <time>2017-12-06T13:01:57Z</time>
      </trkpt>
      <trkpt lat="43.50001" lon="6.37186">
        <ele>324.4</ele>
        <time>2017-12-06T13:02:22Z</time>
      </trkpt>
      <trkpt lat="43.5" lon="6.37197">
        <ele>323.3</ele>
        <time>2017-12-06T13:02:31Z</time>
      </trkpt>
      <trkpt lat="43.49996" lon="6.37207">
        <ele>322.7</ele>
        <time>2017-12-06T13:02:36Z</time>
      </trkpt>
      <trkpt lat="43.49992" lon="6.37217">
        <ele>322.3</ele>
        <time>2017-12-06T13:02:41Z</time>
      </trkpt>
      <trkpt lat="43.49986" lon="6.37227">
        <ele>321.6</ele>
        <time>2017-12-06T13:02:47Z</time>
      </trkpt>
      <trkpt lat="43.49981" lon="6.37236">
        <ele>320.4</ele>
        <time>2017-12-06T13:02:54Z</time>
      </trkpt>
      <trkpt lat="43.49976" lon="6.37245">
        <ele>318.6</ele>
        <time>2017-12-06T13:03:02Z</time>
      </trkpt>
      <trkpt lat="43.49975" lon="6.37246">
        <ele>318.4</ele>
        <time>2017-12-06T13:03:03Z</time>
      </trkpt>
      <trkpt lat="43.49969" lon="6.37265">
        <ele>316.2</ele>
        <time>2017-12-06T13:03:19Z</time>
      </trkpt>
      <trkpt lat="43.49964" lon="6.37275">
        <ele>315.3</ele>
        <time>2017-12-06T13:03:26Z</time>
      </trkpt>
      <trkpt lat="43.49963" lon="6.37286">
        <ele>315</ele>
        <time>2017-12-06T13:03:32Z</time>
      </trkpt>
      <trkpt lat="43.49962" lon="6.37297">
        <ele>314.9</ele>
        <time>2017-12-06T13:03:39Z</time>
      </trkpt>
      <trkpt lat="43.49964" lon="6.37309">
        <ele>314.5</ele>
        <time>2017-12-06T13:03:45Z</time>
      </trkpt>
      <trkpt lat="43.49968" lon="6.37319">
        <ele>313.7</ele>
        <time>2017-12-06T13:03:58Z</time>
      </trkpt>
      <trkpt lat="43.49973" lon="6.37328">
        <ele>313.1</ele>
        <time>2017-12-06T13:04:06Z</time>
      </trkpt>
      <trkpt lat="43.49974" lon="6.37329">
        <ele>313</ele>
        <time>2017-12-06T13:04:07Z</time>
      </trkpt>
      <trkpt lat="43.49987" lon="6.37342">
        <ele>311.2</ele>
        <time>2017-12-06T13:04:23Z</time>
      </trkpt>
      <trkpt lat="43.49995" lon="6.37346">
        <ele>309.2</ele>
        <time>2017-12-06T13:04:34Z</time>
      </trkpt>
      <trkpt lat="43.50004" lon="6.37348">
        <ele>307.5</ele>
        <time>2017-12-06T13:04:45Z</time>
      </trkpt>
      <trkpt lat="43.50012" lon="6.37347">
        <ele>306</ele>
        <time>2017-12-06T13:04:54Z</time>
      </trkpt>
      <trkpt lat="43.5002" lon="6.37345">
        <ele>304.5</ele>
        <time>2017-12-06T13:05:03Z</time>
      </trkpt>
      <trkpt lat="43.50028" lon="6.37343">
        <ele>303.6</ele>
        <time>2017-12-06T13:05:11Z</time>
      </trkpt>
      <trkpt lat="43.50029" lon="6.37343">
        <ele>303.4</ele>
        <time>2017-12-06T13:05:12Z</time>
      </trkpt>
      <trkpt lat="43.50045" lon="6.37341">
        <ele>300.3</ele>
        <time>2017-12-06T13:05:32Z</time>
      </trkpt>
      <trkpt lat="43.50053" lon="6.3734">
        <ele>297.9</ele>
        <time>2017-12-06T13:05:44Z</time>
      </trkpt>
      <trkpt lat="43.50062" lon="6.37339">
        <ele>296.2</ele>
        <time>2017-12-06T13:05:53Z</time>
      </trkpt>
      <trkpt lat="43.5007" lon="6.37338">
        <ele>294.9</ele>
        <time>2017-12-06T13:06:02Z</time>
      </trkpt>
      <trkpt lat="43.50079" lon="6.37336">
        <ele>293.5</ele>
        <time>2017-12-06T13:06:13Z</time>
      </trkpt>
      <trkpt lat="43.5008" lon="6.37336">
        <ele>293.4</ele>
        <time>2017-12-06T13:06:14Z</time>
      </trkpt>
      <trkpt lat="43.50094" lon="6.37329">
        <ele>290.9</ele>
        <time>2017-12-06T13:06:30Z</time>
      </trkpt>
      <trkpt lat="43.50103" lon="6.3733">
        <ele>290.2</ele>
        <time>2017-12-06T13:06:38Z</time>
      </trkpt>
      <trkpt lat="43.50112" lon="6.37328">
        <ele>289</ele>
        <time>2017-12-06T13:06:48Z</time>
      </trkpt>
      <trkpt lat="43.5012" lon="6.37332">
        <ele>288.7</ele>
        <time>2017-12-06T13:06:58Z</time>
      </trkpt>
      <trkpt lat="43.50124" lon="6.37343">
        <ele>290</ele>
        <time>2017-12-06T13:07:17Z</time>
      </trkpt>
      <trkpt lat="43.50124" lon="6.37344">
        <ele>290</ele>
        <time>2017-12-06T13:07:18Z</time>
      </trkpt>
      <trkpt lat="43.50137" lon="6.37358">
        <ele>292.9</ele>
        <time>2017-12-06T13:07:41Z</time>
      </trkpt>
      <trkpt lat="43.50143" lon="6.37366">
        <ele>295</ele>
        <time>2017-12-06T13:07:52Z</time>
      </trkpt>
      <trkpt lat="43.50149" lon="6.37373">
        <ele>296.4</ele>
        <time>2017-12-06T13:08:02Z</time>
      </trkpt>
      <trkpt lat="43.50156" lon="6.3738">
        <ele>298.2</ele>
        <time>2017-12-06T13:08:12Z</time>
      </trkpt>
      <trkpt lat="43.50163" lon="6.37388">
        <ele>300.6</ele>
        <time>2017-12-06T13:08:23Z</time>
      </trkpt>
      <trkpt lat="43.50163" lon="6.37388">
        <ele>300.8</ele>
        <time>2017-12-06T13:08:24Z</time>
      </trkpt>
      <trkpt lat="43.50177" lon="6.374">
        <ele>304.2</ele>
        <time>2017-12-06T13:08:43Z</time>
      </trkpt>
      <trkpt lat="43.50184" lon="6.37406">
        <ele>305.6</ele>
        <time>2017-12-06T13:08:58Z</time>
      </trkpt>
      <trkpt lat="43.50192" lon="6.37409">
        <ele>305.9</ele>
        <time>2017-12-06T13:09:07Z</time>
      </trkpt>
      <trkpt lat="43.50201" lon="6.37411">
        <ele>306.8</ele>
        <time>2017-12-06T13:09:20Z</time>
      </trkpt>
      <trkpt lat="43.50209" lon="6.37407">
        <ele>307.6</ele>
        <time>2017-12-06T13:09:28Z</time>
      </trkpt>
      <trkpt lat="43.50211" lon="6.37408">
        <ele>307.7</ele>
        <time>2017-12-06T13:09:29Z</time>
      </trkpt>
      <trkpt lat="43.50226" lon="6.37415">
        <ele>308.6</ele>
        <time>2017-12-06T13:09:38Z</time>
      </trkpt>
      <trkpt lat="43.50233" lon="6.37418">
        <ele>308.7</ele>
        <time>2017-12-06T13:09:43Z</time>
      </trkpt>
      <trkpt lat="43.5024" lon="6.37422">
        <ele>309</ele>
        <time>2017-12-06T13:09:47Z</time>
      </trkpt>
      <trkpt lat="43.50248" lon="6.37426">
        <ele>309.3</ele>
        <time>2017-12-06T13:09:51Z</time>
      </trkpt>
      <trkpt lat="43.50256" lon="6.37431">
        <ele>309.7</ele>
        <time>2017-12-06T13:09:56Z</time>
      </trkpt>
      <trkpt lat="43.50263" lon="6.37436">
        <ele>310.2</ele>
        <time>2017-12-06T13:10:03Z</time>
      </trkpt>
      <trkpt lat="43.5027" lon="6.3744">
        <ele>310.6</ele>
        <time>2017-12-06T13:10:08Z</time>
      </trkpt>
      <trkpt lat="43.50277" lon="6.37445">
        <ele>311</ele>
        <time>2017-12-06T13:10:13Z</time>
      </trkpt>
      <trkpt lat="43.50285" lon="6.37449">
        <ele>311.6</ele>
        <time>2017-12-06T13:10:20Z</time>
      </trkpt>
      <trkpt lat="43.50292" lon="6.37453">
        <ele>312.4</ele>
        <time>2017-12-06T13:10:27Z</time>
      </trkpt>
      <trkpt lat="43.503" lon="6.37458">
        <ele>313.6</ele>
        <time>2017-12-06T13:10:35Z</time>
      </trkpt>
      <trkpt lat="43.50301" lon="6.37459">
        <ele>313.8</ele>
        <time>2017-12-06T13:10:36Z</time>
      </trkpt>
      <trkpt lat="43.50316" lon="6.37465">
        <ele>316.5</ele>
        <time>2017-12-06T13:10:51Z</time>
      </trkpt>
      <trkpt lat="43.50324" lon="6.3747">
        <ele>318.9</ele>
        <time>2017-12-06T13:11:03Z</time>
      </trkpt>
      <trkpt lat="43.50333" lon="6.37469">
        <ele>320.6</ele>
        <time>2017-12-06T13:11:13Z</time>
      </trkpt>
      <trkpt lat="43.50341" lon="6.37469">
        <ele>321.9</ele>
        <time>2017-12-06T13:11:21Z</time>
      </trkpt>
      <trkpt lat="43.50349" lon="6.37471">
        <ele>323.7</ele>
        <time>2017-12-06T13:11:31Z</time>
      </trkpt>
      <trkpt lat="43.50357" lon="6.37473">
        <ele>325</ele>
        <time>2017-12-06T13:11:41Z</time>
      </trkpt>
      <trkpt lat="43.50359" lon="6.37474">
        <ele>325.1</ele>
        <time>2017-12-06T13:11:42Z</time>
      </trkpt>
      <trkpt lat="43.50372" lon="6.37481">
        <ele>326.6</ele>
        <time>2017-12-06T13:11:52Z</time>
      </trkpt>
      <trkpt lat="43.5038" lon="6.37486">
        <ele>327.5</ele>
        <time>2017-12-06T13:11:59Z</time>
      </trkpt>
      <trkpt lat="43.50388" lon="6.37489">
        <ele>327.7</ele>
        <time>2017-12-06T13:12:06Z</time>
      </trkpt>
      <trkpt lat="43.50397" lon="6.37491">
        <ele>328.2</ele>
        <time>2017-12-06T13:12:14Z</time>
      </trkpt>
      <trkpt lat="43.50406" lon="6.37493">
        <ele>329</ele>
        <time>2017-12-06T13:12:24Z</time>
      </trkpt>
      <trkpt lat="43.50414" lon="6.37496">
        <ele>329</ele>
        <time>2017-12-06T13:12:32Z</time>
      </trkpt>
      <trkpt lat="43.50422" lon="6.37497">
        <ele>329.6</ele>
        <time>2017-12-06T13:12:39Z</time>
      </trkpt>
      <trkpt lat="43.5043" lon="6.37498">
        <ele>330.1</ele>
        <time>2017-12-06T13:12:46Z</time>
      </trkpt>
      <trkpt lat="43.50431" lon="6.37498">
        <ele>330.2</ele>
        <time>2017-12-06T13:12:47Z</time>
      </trkpt>
      <trkpt lat="43.50446" lon="6.37506">
        <ele>331.1</ele>
        <time>2017-12-06T13:13:01Z</time>
      </trkpt>
      <trkpt lat="43.50454" lon="6.37508">
        <ele>331.6</ele>
        <time>2017-12-06T13:13:09Z</time>
      </trkpt>
      <trkpt lat="43.50463" lon="6.37508">
        <ele>331.9</ele>
        <time>2017-12-06T13:13:17Z</time>
      </trkpt>
      <trkpt lat="43.50472" lon="6.37509">
        <ele>332.4</ele>
        <time>2017-12-06T13:13:24Z</time>
      </trkpt>
      <trkpt lat="43.5048" lon="6.37507">
        <ele>332.5</ele>
        <time>2017-12-06T13:13:31Z</time>
      </trkpt>
      <trkpt lat="43.50488" lon="6.37507">
        <ele>332.7</ele>
        <time>2017-12-06T13:13:36Z</time>
      </trkpt>
      <trkpt lat="43.50497" lon="6.37509">
        <ele>332.3</ele>
        <time>2017-12-06T13:13:45Z</time>
      </trkpt>
      <trkpt lat="43.50505" lon="6.37511">
        <ele>332.6</ele>
        <time>2017-12-06T13:13:56Z</time>
      </trkpt>
      <trkpt lat="43.50506" lon="6.3751">
        <ele>332.6</ele>
        <time>2017-12-06T13:13:57Z</time>
      </trkpt>
      <trkpt lat="43.50522" lon="6.37509">
        <ele>332.2</ele>
        <time>2017-12-06T13:14:10Z</time>
      </trkpt>
      <trkpt lat="43.50529" lon="6.37508">
        <ele>332.2</ele>
        <time>2017-12-06T13:14:17Z</time>
      </trkpt>
      <trkpt lat="43.50538" lon="6.37509">
        <ele>332</ele>
        <time>2017-12-06T13:14:25Z</time>
      </trkpt>
      <trkpt lat="43.50546" lon="6.3751">
        <ele>331.8</ele>
        <time>2017-12-06T13:14:33Z</time>
      </trkpt>
      <trkpt lat="43.50555" lon="6.37509">
        <ele>331.4</ele>
        <time>2017-12-06T13:14:41Z</time>
      </trkpt>
      <trkpt lat="43.50563" lon="6.37509">
        <ele>331.2</ele>
        <time>2017-12-06T13:14:50Z</time>
      </trkpt>
      <trkpt lat="43.50572" lon="6.37508">
        <ele>330.7</ele>
        <time>2017-12-06T13:15:01Z</time>
      </trkpt>
      <trkpt lat="43.50573" lon="6.37507">
        <ele>330.7</ele>
        <time>2017-12-06T13:15:02Z</time>
      </trkpt>
      <trkpt lat="43.50588" lon="6.37506">
        <ele>330.2</ele>
        <time>2017-12-06T13:15:13Z</time>
      </trkpt>
      <trkpt lat="43.50596" lon="6.37505">
        <ele>329.2</ele>
        <time>2017-12-06T13:15:21Z</time>
      </trkpt>
      <trkpt lat="43.50605" lon="6.37504">
        <ele>328.6</ele>
        <time>2017-12-06T13:15:29Z</time>
      </trkpt>
      <trkpt lat="43.50613" lon="6.37499">
        <ele>327.8</ele>
        <time>2017-12-06T13:15:38Z</time>
      </trkpt>
      <trkpt lat="43.50621" lon="6.37495">
        <ele>327</ele>
        <time>2017-12-06T13:15:46Z</time>
      </trkpt>
      <trkpt lat="43.50629" lon="6.37493">
        <ele>326</ele>
        <time>2017-12-06T13:15:53Z</time>
      </trkpt>
      <trkpt lat="43.50638" lon="6.3749">
        <ele>324.5</ele>
        <time>2017-12-06T13:16:03Z</time>
      </trkpt>
      <trkpt lat="43.50639" lon="6.3749">
        <ele>324.1</ele>
        <time>2017-12-06T13:16:04Z</time>
      </trkpt>
      <trkpt lat="43.50654" lon="6.3748">
        <ele>320.5</ele>
        <time>2017-12-06T13:16:23Z</time>
      </trkpt>
      <trkpt lat="43.50662" lon="6.37478">
        <ele>319.1</ele>
        <time>2017-12-06T13:16:34Z</time>
      </trkpt>
      <trkpt lat="43.50671" lon="6.37476">
        <ele>317.7</ele>
        <time>2017-12-06T13:16:44Z</time>
      </trkpt>
      <trkpt lat="43.50679" lon="6.37472">
        <ele>316.1</ele>
        <time>2017-12-06T13:16:53Z</time>
      </trkpt>
      <trkpt lat="43.50687" lon="6.37468">
        <ele>315</ele>
        <time>2017-12-06T13:17:02Z</time>
      </trkpt>
      <trkpt lat="43.50695" lon="6.37464">
        <ele>312.6</ele>
        <time>2017-12-06T13:17:12Z</time>
      </trkpt>
      <trkpt lat="43.50696" lon="6.37464">
        <ele>312.5</ele>
        <time>2017-12-06T13:17:13Z</time>
      </trkpt>
      <trkpt lat="43.50712" lon="6.37459">
        <ele>309</ele>
        <time>2017-12-06T13:17:34Z</time>
      </trkpt>
      <trkpt lat="43.5072" lon="6.37454">
        <ele>307.3</ele>
        <time>2017-12-06T13:17:44Z</time>
      </trkpt>
      <trkpt lat="43.50728" lon="6.37449">
        <ele>306.6</ele>
        <time>2017-12-06T13:17:54Z</time>
      </trkpt>
      <trkpt lat="43.50737" lon="6.37446">
        <ele>305.6</ele>
        <time>2017-12-06T13:18:08Z</time>
      </trkpt>
      <trkpt lat="43.50744" lon="6.37439">
        <ele>305.1</ele>
        <time>2017-12-06T13:18:29Z</time>
      </trkpt>
      <trkpt lat="43.50745" lon="6.37439">
        <ele>305</ele>
        <time>2017-12-06T13:18:30Z</time>
      </trkpt>
      <trkpt lat="43.50758" lon="6.37424">
        <ele>304.6</ele>
        <time>2017-12-06T13:19:59Z</time>
      </trkpt>
      <trkpt lat="43.50758" lon="6.37424">
        <ele>304.6</ele>
        <time>2017-12-06T13:20:00Z</time>
      </trkpt>
      <trkpt lat="43.50773" lon="6.37413">
        <ele>304.5</ele>
        <time>2017-12-06T13:20:19Z</time>
      </trkpt>
      <trkpt lat="43.50781" lon="6.3741">
        <ele>304.7</ele>
        <time>2017-12-06T13:20:28Z</time>
      </trkpt>
      <trkpt lat="43.50789" lon="6.37406">
        <ele>304.8</ele>
        <time>2017-12-06T13:20:36Z</time>
      </trkpt>
      <trkpt lat="43.50797" lon="6.37402">
        <ele>304.5</ele>
        <time>2017-12-06T13:20:45Z</time>
      </trkpt>
      <trkpt lat="43.50802" lon="6.37393">
        <ele>304.4</ele>
        <time>2017-12-06T13:20:53Z</time>
      </trkpt>
      <trkpt lat="43.50807" lon="6.37384">
        <ele>304.6</ele>
        <time>2017-12-06T13:21:01Z</time>
      </trkpt>
      <trkpt lat="43.50808" lon="6.37383">
        <ele>304.6</ele>
        <time>2017-12-06T13:21:02Z</time>
      </trkpt>
      <trkpt lat="43.50816" lon="6.37364">
        <ele>305.1</ele>
        <time>2017-12-06T13:21:22Z</time>
      </trkpt>
      <trkpt lat="43.5082" lon="6.37353">
        <ele>305.1</ele>
        <time>2017-12-06T13:21:32Z</time>
      </trkpt>
      <trkpt lat="43.50823" lon="6.37342">
        <ele>305.8</ele>
        <time>2017-12-06T13:21:41Z</time>
      </trkpt>
      <trkpt lat="43.50825" lon="6.37331">
        <ele>306.4</ele>
        <time>2017-12-06T13:21:49Z</time>
      </trkpt>
      <trkpt lat="43.50827" lon="6.3732">
        <ele>306.5</ele>
        <time>2017-12-06T13:21:56Z</time>
      </trkpt>
      <trkpt lat="43.50828" lon="6.37307">
        <ele>307.1</ele>
        <time>2017-12-06T13:22:04Z</time>
      </trkpt>
      <trkpt lat="43.50828" lon="6.37307">
        <ele>307.3</ele>
        <time>2017-12-06T13:22:05Z</time>
      </trkpt>
      <trkpt lat="43.50828" lon="6.37284">
        <ele>307.8</ele>
        <time>2017-12-06T13:22:22Z</time>
      </trkpt>
      <trkpt lat="43.5083" lon="6.37272">
        <ele>307.6</ele>
        <time>2017-12-06T13:22:29Z</time>
      </trkpt>
      <trkpt lat="43.50834" lon="6.37262">
        <ele>307.1</ele>
        <time>2017-12-06T13:22:36Z</time>
      </trkpt>
      <trkpt lat="43.50838" lon="6.37253">
        <ele>307.1</ele>
        <time>2017-12-06T13:22:41Z</time>
      </trkpt>
      <trkpt lat="43.50842" lon="6.37243">
        <ele>307.4</ele>
        <time>2017-12-06T13:22:46Z</time>
      </trkpt>
      <trkpt lat="43.50847" lon="6.37234">
        <ele>307.6</ele>
        <time>2017-12-06T13:22:55Z</time>
      </trkpt>
      <trkpt lat="43.50851" lon="6.37223">
        <ele>308.4</ele>
        <time>2017-12-06T13:23:07Z</time>
      </trkpt>
      <trkpt lat="43.50851" lon="6.37221">
        <ele>308.4</ele>
        <time>2017-12-06T13:23:08Z</time>
      </trkpt>
      <trkpt lat="43.5085" lon="6.372">
        <ele>309.4</ele>
        <time>2017-12-06T13:23:28Z</time>
      </trkpt>
      <trkpt lat="43.50849" lon="6.37188">
        <ele>310.1</ele>
        <time>2017-12-06T13:23:38Z</time>
      </trkpt>
      <trkpt lat="43.50849" lon="6.37177">
        <ele>310.6</ele>
        <time>2017-12-06T13:23:45Z</time>
      </trkpt>
      <trkpt lat="43.50848" lon="6.37165">
        <ele>311.2</ele>
        <time>2017-12-06T13:23:53Z</time>
      </trkpt>
      <trkpt lat="43.50848" lon="6.37154">
        <ele>311.6</ele>
        <time>2017-12-06T13:24:00Z</time>
      </trkpt>
      <trkpt lat="43.50846" lon="6.37142">
        <ele>311.8</ele>
        <time>2017-12-06T13:24:07Z</time>
      </trkpt>
      <trkpt lat="43.50845" lon="6.37131">
        <ele>312</ele>
        <time>2017-12-06T13:24:14Z</time>
      </trkpt>
      <trkpt lat="43.50845" lon="6.37129">
        <ele>311.9</ele>
        <time>2017-12-06T13:24:15Z</time>
      </trkpt>
      <trkpt lat="43.50845" lon="6.37107">
        <ele>312.2</ele>
        <time>2017-12-06T13:24:29Z</time>
      </trkpt>
      <trkpt lat="43.50844" lon="6.37096">
        <ele>312.4</ele>
        <time>2017-12-06T13:24:36Z</time>
      </trkpt>
      <trkpt lat="43.50842" lon="6.37084">
        <ele>311.8</ele>
        <time>2017-12-06T13:24:45Z</time>
      </trkpt>
      <trkpt lat="43.50838" lon="6.37074">
        <ele>311</ele>
        <time>2017-12-06T13:24:54Z</time>
      </trkpt>
      <trkpt lat="43.50835" lon="6.37063">
        <ele>309.8</ele>
        <time>2017-12-06T13:25:03Z</time>
      </trkpt>
      <trkpt lat="43.50834" lon="6.37052">
        <ele>309.4</ele>
        <time>2017-12-06T13:25:11Z</time>
      </trkpt>
      <trkpt lat="43.50834" lon="6.37041">
        <ele>308.4</ele>
        <time>2017-12-06T13:25:19Z</time>
      </trkpt>
      <trkpt lat="43.50834" lon="6.37039">
        <ele>308.2</ele>
        <time>2017-12-06T13:25:20Z</time>
      </trkpt>
      <trkpt lat="43.50834" lon="6.37017">
        <ele>305.6</ele>
        <time>2017-12-06T13:25:36Z</time>
      </trkpt>
      <trkpt lat="43.50835" lon="6.37005">
        <ele>304.7</ele>
        <time>2017-12-06T13:25:42Z</time>
      </trkpt>
      <trkpt lat="43.50837" lon="6.36994">
        <ele>303.9</ele>
        <time>2017-12-06T13:25:48Z</time>
      </trkpt>
      <trkpt lat="43.50834" lon="6.36983">
        <ele>303.2</ele>
        <time>2017-12-06T13:25:57Z</time>
      </trkpt>
      <trkpt lat="43.50832" lon="6.36973">
        <ele>301.7</ele>
        <time>2017-12-06T13:26:06Z</time>
      </trkpt>
      <trkpt lat="43.50831" lon="6.36961">
        <ele>301</ele>
        <time>2017-12-06T13:26:13Z</time>
      </trkpt>
      <trkpt lat="43.50837" lon="6.36953">
        <ele>300.6</ele>
        <time>2017-12-06T13:26:21Z</time>
      </trkpt>
      <trkpt lat="43.50838" lon="6.36952">
        <ele>300.6</ele>
        <time>2017-12-06T13:26:22Z</time>
      </trkpt>
      <trkpt lat="43.50852" lon="6.36944">
        <ele>301.9</ele>
        <time>2017-12-06T13:26:42Z</time>
      </trkpt>
      <trkpt lat="43.5086" lon="6.36943">
        <ele>302.8</ele>
        <time>2017-12-06T13:26:52Z</time>
      </trkpt>
      <trkpt lat="43.50868" lon="6.36942">
        <ele>303.4</ele>
        <time>2017-12-06T13:27:00Z</time>
      </trkpt>
      <trkpt lat="43.50876" lon="6.36943">
        <ele>303.9</ele>
        <time>2017-12-06T13:27:08Z</time>
      </trkpt>
      <trkpt lat="43.50885" lon="6.36941">
        <ele>304.5</ele>
        <time>2017-12-06T13:27:17Z</time>
      </trkpt>
      <trkpt lat="43.50893" lon="6.36942">
        <ele>305.6</ele>
        <time>2017-12-06T13:27:25Z</time>
      </trkpt>
      <trkpt lat="43.50894" lon="6.36943">
        <ele>305.6</ele>
        <time>2017-12-06T13:27:26Z</time>
      </trkpt>
      <trkpt lat="43.50908" lon="6.36946">
        <ele>307</ele>
        <time>2017-12-06T13:27:41Z</time>
      </trkpt>
      <trkpt lat="43.50916" lon="6.36948">
        <ele>307.8</ele>
        <time>2017-12-06T13:27:48Z</time>
      </trkpt>
      <trkpt lat="43.50925" lon="6.36951">
        <ele>308.9</ele>
        <time>2017-12-06T13:27:57Z</time>
      </trkpt>
      <trkpt lat="43.50933" lon="6.36955">
        <ele>309.3</ele>
        <time>2017-12-06T13:28:07Z</time>
      </trkpt>
      <trkpt lat="43.50942" lon="6.36957">
        <ele>309.5</ele>
        <time>2017-12-06T13:28:16Z</time>
      </trkpt>
      <trkpt lat="43.5095" lon="6.3696">
        <ele>308.9</ele>
        <time>2017-12-06T13:28:28Z</time>
      </trkpt>
      <trkpt lat="43.5095" lon="6.3696">
        <ele>308.8</ele>
        <time>2017-12-06T13:28:29Z</time>
      </trkpt>
      <trkpt lat="43.50965" lon="6.36968">
        <ele>306.2</ele>
        <time>2017-12-06T13:28:51Z</time>
      </trkpt>
      <trkpt lat="43.5097" lon="6.36977">
        <ele>305.4</ele>
        <time>2017-12-06T13:29:01Z</time>
      </trkpt>
      <trkpt lat="43.50978" lon="6.36983">
        <ele>304.5</ele>
        <time>2017-12-06T13:29:13Z</time>
      </trkpt>
      <trkpt lat="43.50985" lon="6.36987">
        <ele>303.6</ele>
        <time>2017-12-06T13:29:23Z</time>
      </trkpt>
      <trkpt lat="43.50994" lon="6.36992">
        <ele>303</ele>
        <time>2017-12-06T13:29:32Z</time>
      </trkpt>
      <trkpt lat="43.50994" lon="6.36993">
        <ele>302.8</ele>
        <time>2017-12-06T13:29:33Z</time>
      </trkpt>
      <trkpt lat="43.51009" lon="6.37003">
        <ele>301.5</ele>
        <time>2017-12-06T13:29:53Z</time>
      </trkpt>
      <trkpt lat="43.51016" lon="6.37008">
        <ele>300.3</ele>
        <time>2017-12-06T13:30:01Z</time>
      </trkpt>
      <trkpt lat="43.51023" lon="6.37012">
        <ele>299.2</ele>
        <time>2017-12-06T13:30:08Z</time>
      </trkpt>
      <trkpt lat="43.51031" lon="6.37016">
        <ele>298</ele>
        <time>2017-12-06T13:30:17Z</time>
      </trkpt>
      <trkpt lat="43.5104" lon="6.37015">
        <ele>296.2</ele>
        <time>2017-12-06T13:30:28Z</time>
      </trkpt>
      <trkpt lat="43.51048" lon="6.37014">
        <ele>295.2</ele>
        <time>2017-12-06T13:30:37Z</time>
      </trkpt>
      <trkpt lat="43.51049" lon="6.37013">
        <ele>295</ele>
        <time>2017-12-06T13:30:38Z</time>
      </trkpt>
      <trkpt lat="43.51064" lon="6.37005">
        <ele>292.4</ele>
        <time>2017-12-06T13:30:58Z</time>
      </trkpt>
      <trkpt lat="43.51072" lon="6.37008">
        <ele>290</ele>
        <time>2017-12-06T13:31:13Z</time>
      </trkpt>
      <trkpt lat="43.51081" lon="6.37007">
        <ele>287.9</ele>
        <time>2017-12-06T13:31:28Z</time>
      </trkpt>
      <trkpt lat="43.51089" lon="6.37004">
        <ele>285.7</ele>
        <time>2017-12-06T13:31:40Z</time>
      </trkpt>
      <trkpt lat="43.5109" lon="6.37004">
        <ele>285.5</ele>
        <time>2017-12-06T13:31:41Z</time>
      </trkpt>
      <trkpt lat="43.51107" lon="6.36999">
        <ele>281.7</ele>
        <time>2017-12-06T13:32:05Z</time>
      </trkpt>
      <trkpt lat="43.51113" lon="6.37006">
        <ele>280.1</ele>
        <time>2017-12-06T13:32:18Z</time>
      </trkpt>
      <trkpt lat="43.51122" lon="6.37002">
        <ele>279.2</ele>
        <time>2017-12-06T13:32:51Z</time>
      </trkpt>
      <trkpt lat="43.51123" lon="6.37001">
        <ele>279.3</ele>
        <time>2017-12-06T13:32:52Z</time>
      </trkpt>
      <trkpt lat="43.51136" lon="6.3699">
        <ele>279.2</ele>
        <time>2017-12-06T13:33:25Z</time>
      </trkpt>
      <trkpt lat="43.51143" lon="6.36998">
        <ele>279.4</ele>
        <time>2017-12-06T13:33:34Z</time>
      </trkpt>
      <trkpt lat="43.5115" lon="6.37003">
        <ele>279.5</ele>
        <time>2017-12-06T13:33:43Z</time>
      </trkpt>
      <trkpt lat="43.51158" lon="6.37008">
        <ele>279</ele>
        <time>2017-12-06T13:33:52Z</time>
      </trkpt>
      <trkpt lat="43.51158" lon="6.37009">
        <ele>279</ele>
        <time>2017-12-06T13:33:53Z</time>
      </trkpt>
      <trkpt lat="43.51173" lon="6.37017">
        <ele>278.9</ele>
        <time>2017-12-06T13:34:11Z</time>
      </trkpt>
      <trkpt lat="43.51181" lon="6.37022">
        <ele>279.1</ele>
        <time>2017-12-06T13:34:18Z</time>
      </trkpt>
      <trkpt lat="43.51189" lon="6.37026">
        <ele>278.9</ele>
        <time>2017-12-06T13:34:26Z</time>
      </trkpt>
      <trkpt lat="43.51197" lon="6.3703">
        <ele>278.4</ele>
        <time>2017-12-06T13:34:35Z</time>
      </trkpt>
      <trkpt lat="43.51205" lon="6.37033">
        <ele>277.9</ele>
        <time>2017-12-06T13:34:43Z</time>
      </trkpt>
      <trkpt lat="43.51213" lon="6.37038">
        <ele>276.9</ele>
        <time>2017-12-06T13:34:52Z</time>
      </trkpt>
      <trkpt lat="43.5122" lon="6.37043">
        <ele>276.4</ele>
        <time>2017-12-06T13:35:00Z</time>
      </trkpt>
      <trkpt lat="43.51221" lon="6.37043">
        <ele>276.4</ele>
        <time>2017-12-06T13:35:01Z</time>
      </trkpt>
      <trkpt lat="43.51237" lon="6.37045">
        <ele>276</ele>
        <time>2017-12-06T13:35:15Z</time>
      </trkpt>
      <trkpt lat="43.51244" lon="6.37049">
        <ele>275.8</ele>
        <time>2017-12-06T13:35:23Z</time>
      </trkpt>
      <trkpt lat="43.51251" lon="6.37055">
        <ele>274.8</ele>
        <time>2017-12-06T13:35:31Z</time>
      </trkpt>
      <trkpt lat="43.51258" lon="6.37062">
        <ele>273.4</ele>
        <time>2017-12-06T13:35:39Z</time>
      </trkpt>
      <trkpt lat="43.51266" lon="6.37062">
        <ele>272.6</ele>
        <time>2017-12-06T13:35:47Z</time>
      </trkpt>
      <trkpt lat="43.51274" lon="6.37061">
        <ele>271.8</ele>
        <time>2017-12-06T13:35:54Z</time>
      </trkpt>
      <trkpt lat="43.51283" lon="6.37061">
        <ele>271.3</ele>
        <time>2017-12-06T13:36:03Z</time>
      </trkpt>
      <trkpt lat="43.51284" lon="6.3706">
        <ele>271.2</ele>
        <time>2017-12-06T13:36:04Z</time>
      </trkpt>
      <trkpt lat="43.51299" lon="6.3706">
        <ele>270</ele>
        <time>2017-12-06T13:36:20Z</time>
      </trkpt>
      <trkpt lat="43.51307" lon="6.37062">
        <ele>269.6</ele>
        <time>2017-12-06T13:36:26Z</time>
      </trkpt>
      <trkpt lat="43.51315" lon="6.37065">
        <ele>269.4</ele>
        <time>2017-12-06T13:36:32Z</time>
      </trkpt>
      <trkpt lat="43.51324" lon="6.37064">
        <ele>269.2</ele>
        <time>2017-12-06T13:36:40Z</time>
      </trkpt>
      <trkpt lat="43.51332" lon="6.37062">
        <ele>269.1</ele>
        <time>2017-12-06T13:36:47Z</time>
      </trkpt>
      <trkpt lat="43.51341" lon="6.37065">
        <ele>269.4</ele>
        <time>2017-12-06T13:36:58Z</time>
      </trkpt>
      <trkpt lat="43.51349" lon="6.37066">
        <ele>268.8</ele>
        <time>2017-12-06T13:37:11Z</time>
      </trkpt>
      <trkpt lat="43.5135" lon="6.37065">
        <ele>268.8</ele>
        <time>2017-12-06T13:37:12Z</time>
      </trkpt>
      <trkpt lat="43.5134" lon="6.37048">
        <ele>265.8</ele>
        <time>2017-12-06T13:37:58Z</time>
      </trkpt>
      <trkpt lat="43.51331" lon="6.3705">
        <ele>265.6</ele>
        <time>2017-12-06T13:38:13Z</time>
      </trkpt>
      <trkpt lat="43.51331" lon="6.37049">
        <ele>265.6</ele>
        <time>2017-12-06T13:38:14Z</time>
      </trkpt>
      <trkpt lat="43.51315" lon="6.37044">
        <ele>264.4</ele>
        <time>2017-12-06T13:38:33Z</time>
      </trkpt>
      <trkpt lat="43.51307" lon="6.37041">
        <ele>263.5</ele>
        <time>2017-12-06T13:38:40Z</time>
      </trkpt>
      <trkpt lat="43.51301" lon="6.37032">
        <ele>262.6</ele>
        <time>2017-12-06T13:38:50Z</time>
      </trkpt>
      <trkpt lat="43.51296" lon="6.37022">
        <ele>262.1</ele>
        <time>2017-12-06T13:38:57Z</time>
      </trkpt>
      <trkpt lat="43.51293" lon="6.37011">
        <ele>260.9</ele>
        <time>2017-12-06T13:39:09Z</time>
      </trkpt>
      <trkpt lat="43.51301" lon="6.37008">
        <ele>257.5</ele>
        <time>2017-12-06T13:39:44Z</time>
      </trkpt>
      <trkpt lat="43.51302" lon="6.37009">
        <ele>257.5</ele>
        <time>2017-12-06T13:39:45Z</time>
      </trkpt>
      <trkpt lat="43.51315" lon="6.37022">
        <ele>256</ele>
        <time>2017-12-06T13:40:05Z</time>
      </trkpt>
      <trkpt lat="43.51321" lon="6.37029">
        <ele>256.3</ele>
        <time>2017-12-06T13:40:13Z</time>
      </trkpt>
      <trkpt lat="43.5133" lon="6.37031">
        <ele>256.5</ele>
        <time>2017-12-06T13:40:23Z</time>
      </trkpt>
      <trkpt lat="43.51338" lon="6.37028">
        <ele>256</ele>
        <time>2017-12-06T13:40:30Z</time>
      </trkpt>
      <trkpt lat="43.51346" lon="6.37025">
        <ele>256.2</ele>
        <time>2017-12-06T13:40:39Z</time>
      </trkpt>
      <trkpt lat="43.51355" lon="6.37028">
        <ele>256.6</ele>
        <time>2017-12-06T13:40:46Z</time>
      </trkpt>
      <trkpt lat="43.51356" lon="6.37028">
        <ele>256.6</ele>
        <time>2017-12-06T13:40:47Z</time>
      </trkpt>
      <trkpt lat="43.51371" lon="6.37028">
        <ele>255.6</ele>
        <time>2017-12-06T13:41:03Z</time>
      </trkpt>
      <trkpt lat="43.51379" lon="6.37026">
        <ele>254.9</ele>
        <time>2017-12-06T13:41:10Z</time>
      </trkpt>
      <trkpt lat="43.51387" lon="6.37025">
        <ele>254.6</ele>
        <time>2017-12-06T13:41:16Z</time>
      </trkpt>
      <trkpt lat="43.51396" lon="6.37026">
        <ele>254.2</ele>
        <time>2017-12-06T13:41:23Z</time>
      </trkpt>
      <trkpt lat="43.51404" lon="6.37028">
        <ele>254.1</ele>
        <time>2017-12-06T13:41:31Z</time>
      </trkpt>
      <trkpt lat="43.51412" lon="6.37032">
        <ele>253.5</ele>
        <time>2017-12-06T13:41:40Z</time>
      </trkpt>
      <trkpt lat="43.5142" lon="6.37035">
        <ele>253</ele>
        <time>2017-12-06T13:41:49Z</time>
      </trkpt>
      <trkpt lat="43.51421" lon="6.37036">
        <ele>253.1</ele>
        <time>2017-12-06T13:41:50Z</time>
      </trkpt>
      <trkpt lat="43.51435" lon="6.37047">
        <ele>252.9</ele>
        <time>2017-12-06T13:42:05Z</time>
      </trkpt>
      <trkpt lat="43.51443" lon="6.37051">
        <ele>252.9</ele>
        <time>2017-12-06T13:42:15Z</time>
      </trkpt>
      <trkpt lat="43.51451" lon="6.37056">
        <ele>252.4</ele>
        <time>2017-12-06T13:42:25Z</time>
      </trkpt>
      <trkpt lat="43.51459" lon="6.37059">
        <ele>250.3</ele>
        <time>2017-12-06T13:42:43Z</time>
      </trkpt>
      <trkpt lat="43.51467" lon="6.37063">
        <ele>248.5</ele>
        <time>2017-12-06T13:42:55Z</time>
      </trkpt>
      <trkpt lat="43.51468" lon="6.37064">
        <ele>248.3</ele>
        <time>2017-12-06T13:42:56Z</time>
      </trkpt>
      <trkpt lat="43.51484" lon="6.37065">
        <ele>247.1</ele>
        <time>2017-12-06T13:43:12Z</time>
      </trkpt>
      <trkpt lat="43.51491" lon="6.37071">
        <ele>246.6</ele>
        <time>2017-12-06T13:43:20Z</time>
      </trkpt>
      <trkpt lat="43.51497" lon="6.37079">
        <ele>246</ele>
        <time>2017-12-06T13:43:28Z</time>
      </trkpt>
      <trkpt lat="43.51506" lon="6.37081">
        <ele>245.2</ele>
        <time>2017-12-06T13:43:37Z</time>
      </trkpt>
      <trkpt lat="43.51514" lon="6.37083">
        <ele>244.6</ele>
        <time>2017-12-06T13:43:45Z</time>
      </trkpt>
      <trkpt lat="43.51521" lon="6.37092">
        <ele>243.5</ele>
        <time>2017-12-06T13:43:56Z</time>
      </trkpt>
      <trkpt lat="43.51522" lon="6.37093">
        <ele>243.4</ele>
        <time>2017-12-06T13:43:57Z</time>
      </trkpt>
      <trkpt lat="43.51535" lon="6.37104">
        <ele>242.6</ele>
        <time>2017-12-06T13:44:13Z</time>
      </trkpt>
      <trkpt lat="43.5154" lon="6.37113">
        <ele>242.6</ele>
        <time>2017-12-06T13:44:20Z</time>
      </trkpt>
      <trkpt lat="43.51547" lon="6.37121">
        <ele>242.2</ele>
        <time>2017-12-06T13:44:27Z</time>
      </trkpt>
      <trkpt lat="43.51554" lon="6.37125">
        <ele>242</ele>
        <time>2017-12-06T13:44:32Z</time>
      </trkpt>
      <trkpt lat="43.51562" lon="6.3713">
        <ele>241.5</ele>
        <time>2017-12-06T13:44:40Z</time>
      </trkpt>
      <trkpt lat="43.51568" lon="6.37138">
        <ele>241.5</ele>
        <time>2017-12-06T13:44:49Z</time>
      </trkpt>
      <trkpt lat="43.51574" lon="6.37144">
        <ele>241.7</ele>
        <time>2017-12-06T13:44:55Z</time>
      </trkpt>
      <trkpt lat="43.51581" lon="6.37151">
        <ele>240.8</ele>
        <time>2017-12-06T13:45:02Z</time>
      </trkpt>
      <trkpt lat="43.51582" lon="6.37152">
        <ele>240.7</ele>
        <time>2017-12-06T13:45:03Z</time>
      </trkpt>
      <trkpt lat="43.51592" lon="6.3717">
        <ele>239.4</ele>
        <time>2017-12-06T13:45:18Z</time>
      </trkpt>
      <trkpt lat="43.516" lon="6.37174">
        <ele>237.7</ele>
        <time>2017-12-06T13:45:35Z</time>
      </trkpt>
      <trkpt lat="43.51604" lon="6.37162">
        <ele>236.5</ele>
        <time>2017-12-06T13:46:33Z</time>
      </trkpt>
      <trkpt lat="43.51604" lon="6.37162">
        <ele>236.5</ele>
        <time>2017-12-06T13:46:34Z</time>
      </trkpt>
      <trkpt lat="43.51614" lon="6.37182">
        <ele>234.9</ele>
        <time>2017-12-06T13:47:23Z</time>
      </trkpt>
      <trkpt lat="43.51618" lon="6.37192">
        <ele>233.2</ele>
        <time>2017-12-06T13:47:37Z</time>
      </trkpt>
      <trkpt lat="43.51619" lon="6.37193">
        <ele>233.1</ele>
        <time>2017-12-06T13:47:38Z</time>
      </trkpt>
      <trkpt lat="43.51623" lon="6.37216">
        <ele>231.1</ele>
        <time>2017-12-06T13:47:58Z</time>
      </trkpt>
      <trkpt lat="43.51624" lon="6.37227">
        <ele>230.1</ele>
        <time>2017-12-06T13:48:09Z</time>
      </trkpt>
      <trkpt lat="43.51628" lon="6.37236">
        <ele>227.5</ele>
        <time>2017-12-06T13:48:21Z</time>
      </trkpt>
      <trkpt lat="43.51629" lon="6.37248">
        <ele>225.7</ele>
        <time>2017-12-06T13:48:34Z</time>
      </trkpt>
      <trkpt lat="43.51636" lon="6.37253">
        <ele>224.2</ele>
        <time>2017-12-06T13:49:04Z</time>
      </trkpt>
      <trkpt lat="43.51637" lon="6.37254">
        <ele>224.2</ele>
        <time>2017-12-06T13:49:05Z</time>
      </trkpt>
      <trkpt lat="43.51653" lon="6.3726">
        <ele>223.8</ele>
        <time>2017-12-06T13:49:38Z</time>
      </trkpt>
      <trkpt lat="43.51661" lon="6.37262">
        <ele>223.6</ele>
        <time>2017-12-06T13:49:53Z</time>
      </trkpt>
      <trkpt lat="43.51661" lon="6.37274">
        <ele>223.7</ele>
        <time>2017-12-06T13:50:33Z</time>
      </trkpt>
      <trkpt lat="43.51661" lon="6.37275">
        <ele>223.7</ele>
        <time>2017-12-06T13:50:34Z</time>
      </trkpt>
      <trkpt lat="43.51678" lon="6.37273">
        <ele>223.2</ele>
        <time>2017-12-06T13:52:50Z</time>
      </trkpt>
      <trkpt lat="43.51679" lon="6.37272">
        <ele>223.2</ele>
        <time>2017-12-06T13:52:51Z</time>
      </trkpt>
      <trkpt lat="43.51694" lon="6.37271">
        <ele>223.3</ele>
        <time>2017-12-06T13:53:06Z</time>
      </trkpt>
      <trkpt lat="43.51702" lon="6.37272">
        <ele>223.4</ele>
        <time>2017-12-06T13:53:14Z</time>
      </trkpt>
      <trkpt lat="43.51709" lon="6.37267">
        <ele>223.7</ele>
        <time>2017-12-06T13:53:20Z</time>
      </trkpt>
      <trkpt lat="43.51716" lon="6.37261">
        <ele>224.2</ele>
        <time>2017-12-06T13:53:25Z</time>
      </trkpt>
      <trkpt lat="43.51724" lon="6.37255">
        <ele>224.8</ele>
        <time>2017-12-06T13:53:35Z</time>
      </trkpt>
      <trkpt lat="43.51731" lon="6.37248">
        <ele>225.7</ele>
        <time>2017-12-06T13:53:47Z</time>
      </trkpt>
      <trkpt lat="43.51733" lon="6.37237">
        <ele>226.9</ele>
        <time>2017-12-06T13:53:59Z</time>
      </trkpt>
      <trkpt lat="43.51733" lon="6.37235">
        <ele>227.1</ele>
        <time>2017-12-06T13:54:00Z</time>
      </trkpt>
      <trkpt lat="43.5174" lon="6.37217">
        <ele>228.6</ele>
        <time>2017-12-06T13:54:11Z</time>
      </trkpt>
      <trkpt lat="43.51744" lon="6.37206">
        <ele>229.4</ele>
        <time>2017-12-06T13:54:19Z</time>
      </trkpt>
      <trkpt lat="43.51748" lon="6.37196">
        <ele>230.5</ele>
        <time>2017-12-06T13:54:28Z</time>
      </trkpt>
      <trkpt lat="43.51754" lon="6.37187">
        <ele>231.4</ele>
        <time>2017-12-06T13:54:36Z</time>
      </trkpt>
      <trkpt lat="43.51759" lon="6.37179">
        <ele>232.2</ele>
        <time>2017-12-06T13:54:44Z</time>
      </trkpt>
      <trkpt lat="43.51763" lon="6.37169">
        <ele>233.1</ele>
        <time>2017-12-06T13:54:52Z</time>
      </trkpt>
      <trkpt lat="43.51769" lon="6.3716">
        <ele>233.8</ele>
        <time>2017-12-06T13:55:01Z</time>
      </trkpt>
      <trkpt lat="43.51769" lon="6.37159">
        <ele>233.9</ele>
        <time>2017-12-06T13:55:02Z</time>
      </trkpt>
      <trkpt lat="43.51778" lon="6.3714">
        <ele>235.1</ele>
        <time>2017-12-06T13:55:19Z</time>
      </trkpt>
      <trkpt lat="43.51784" lon="6.37131">
        <ele>236.5</ele>
        <time>2017-12-06T13:55:33Z</time>
      </trkpt>
      <trkpt lat="43.51789" lon="6.37122">
        <ele>237.1</ele>
        <time>2017-12-06T13:55:45Z</time>
      </trkpt>
      <trkpt lat="43.51793" lon="6.37111">
        <ele>237.2</ele>
        <time>2017-12-06T13:55:53Z</time>
      </trkpt>
      <trkpt lat="43.51799" lon="6.37102">
        <ele>237.5</ele>
        <time>2017-12-06T13:56:07Z</time>
      </trkpt>
      <trkpt lat="43.51799" lon="6.37101">
        <ele>237.5</ele>
        <time>2017-12-06T13:56:08Z</time>
      </trkpt>
      <trkpt lat="43.51809" lon="6.37083">
        <ele>238.7</ele>
        <time>2017-12-06T13:57:08Z</time>
      </trkpt>
      <trkpt lat="43.5181" lon="6.37082">
        <ele>238.7</ele>
        <time>2017-12-06T13:57:09Z</time>
      </trkpt>
      <trkpt lat="43.51821" lon="6.37065">
        <ele>238.6</ele>
        <time>2017-12-06T13:57:22Z</time>
      </trkpt>
      <trkpt lat="43.51825" lon="6.37055">
        <ele>238.9</ele>
        <time>2017-12-06T13:57:31Z</time>
      </trkpt>
      <trkpt lat="43.51826" lon="6.37043">
        <ele>239</ele>
        <time>2017-12-06T13:57:49Z</time>
      </trkpt>
      <trkpt lat="43.51828" lon="6.37031">
        <ele>239.1</ele>
        <time>2017-12-06T13:58:11Z</time>
      </trkpt>
      <trkpt lat="43.51827" lon="6.3703">
        <ele>239.1</ele>
        <time>2017-12-06T13:58:12Z</time>
      </trkpt>
      <trkpt lat="43.51816" lon="6.37013">
        <ele>236.4</ele>
        <time>2017-12-06T13:58:44Z</time>
      </trkpt>
      <trkpt lat="43.5182" lon="6.37003">
        <ele>235</ele>
        <time>2017-12-06T13:58:58Z</time>
      </trkpt>
      <trkpt lat="43.51826" lon="6.36996">
        <ele>235.1</ele>
        <time>2017-12-06T13:59:09Z</time>
      </trkpt>
      <trkpt lat="43.51832" lon="6.36987">
        <ele>235.5</ele>
        <time>2017-12-06T13:59:17Z</time>
      </trkpt>
      <trkpt lat="43.51833" lon="6.36986">
        <ele>235.7</ele>
        <time>2017-12-06T13:59:18Z</time>
      </trkpt>
      <trkpt lat="43.51843" lon="6.36969">
        <ele>237.5</ele>
        <time>2017-12-06T13:59:38Z</time>
      </trkpt>
      <trkpt lat="43.51847" lon="6.3696">
        <ele>238</ele>
        <time>2017-12-06T13:59:45Z</time>
      </trkpt>
      <trkpt lat="43.51842" lon="6.3695">
        <ele>240.8</ele>
        <time>2017-12-06T14:00:11Z</time>
      </trkpt>
      <trkpt lat="43.51837" lon="6.3694">
        <ele>242.2</ele>
        <time>2017-12-06T14:00:28Z</time>
      </trkpt>
      <trkpt lat="43.51837" lon="6.3694">
        <ele>242.3</ele>
        <time>2017-12-06T14:00:29Z</time>
      </trkpt>
      <trkpt lat="43.51834" lon="6.36918">
        <ele>246.9</ele>
        <time>2017-12-06T14:01:00Z</time>
      </trkpt>
      <trkpt lat="43.51835" lon="6.36906">
        <ele>248.9</ele>
        <time>2017-12-06T14:01:19Z</time>
      </trkpt>
      <trkpt lat="43.51837" lon="6.36895">
        <ele>250.2</ele>
        <time>2017-12-06T14:01:31Z</time>
      </trkpt>
      <trkpt lat="43.51838" lon="6.36894">
        <ele>250.3</ele>
        <time>2017-12-06T14:01:32Z</time>
      </trkpt>
      <trkpt lat="43.51833" lon="6.36874">
        <ele>253.1</ele>
        <time>2017-12-06T14:02:00Z</time>
      </trkpt>
      <trkpt lat="43.51837" lon="6.36863">
        <ele>254.4</ele>
        <time>2017-12-06T14:02:12Z</time>
      </trkpt>
      <trkpt lat="43.51842" lon="6.36854">
        <ele>254.8</ele>
        <time>2017-12-06T14:02:18Z</time>
      </trkpt>
      <trkpt lat="43.51847" lon="6.36846">
        <ele>254.6</ele>
        <time>2017-12-06T14:02:22Z</time>
      </trkpt>
      <trkpt lat="43.51849" lon="6.36834">
        <ele>254.4</ele>
        <time>2017-12-06T14:02:32Z</time>
      </trkpt>
      <trkpt lat="43.51849" lon="6.36834">
        <ele>254.5</ele>
        <time>2017-12-06T14:02:33Z</time>
      </trkpt>
      <trkpt lat="43.51853" lon="6.36819">
        <ele>255.7</ele>
        <time>2017-12-06T14:03:22Z</time>
      </trkpt>
      <trkpt lat="43.51852" lon="6.36808">
        <ele>256.3</ele>
        <time>2017-12-06T14:03:31Z</time>
      </trkpt>
      <trkpt lat="43.5185" lon="6.36797">
        <ele>256.9</ele>
        <time>2017-12-06T14:03:39Z</time>
      </trkpt>
      <trkpt lat="43.51849" lon="6.36796">
        <ele>257.1</ele>
        <time>2017-12-06T14:03:40Z</time>
      </trkpt>
      <trkpt lat="43.51844" lon="6.36776">
        <ele>258.5</ele>
        <time>2017-12-06T14:03:54Z</time>
      </trkpt>
      <trkpt lat="43.51839" lon="6.36766">
        <ele>258.9</ele>
        <time>2017-12-06T14:04:01Z</time>
      </trkpt>
      <trkpt lat="43.51834" lon="6.36757">
        <ele>259.5</ele>
        <time>2017-12-06T14:04:09Z</time>
      </trkpt>
      <trkpt lat="43.51827" lon="6.3675">
        <ele>260.2</ele>
        <time>2017-12-06T14:04:15Z</time>
      </trkpt>
      <trkpt lat="43.51821" lon="6.36742">
        <ele>260.7</ele>
        <time>2017-12-06T14:04:22Z</time>
      </trkpt>
      <trkpt lat="43.51815" lon="6.36734">
        <ele>261.2</ele>
        <time>2017-12-06T14:04:30Z</time>
      </trkpt>
      <trkpt lat="43.51809" lon="6.36725">
        <ele>261.9</ele>
        <time>2017-12-06T14:04:40Z</time>
      </trkpt>
      <trkpt lat="43.51809" lon="6.36724">
        <ele>262</ele>
        <time>2017-12-06T14:04:41Z</time>
      </trkpt>
      <trkpt lat="43.51795" lon="6.3671">
        <ele>263.5</ele>
        <time>2017-12-06T14:05:01Z</time>
      </trkpt>
      <trkpt lat="43.51789" lon="6.36702">
        <ele>264.2</ele>
        <time>2017-12-06T14:05:10Z</time>
      </trkpt>
      <trkpt lat="43.51781" lon="6.36697">
        <ele>264.6</ele>
        <time>2017-12-06T14:05:17Z</time>
      </trkpt>
      <trkpt lat="43.51773" lon="6.36692">
        <ele>265.2</ele>
        <time>2017-12-06T14:05:23Z</time>
      </trkpt>
      <trkpt lat="43.51766" lon="6.36687">
        <ele>265.7</ele>
        <time>2017-12-06T14:05:32Z</time>
      </trkpt>
      <trkpt lat="43.51758" lon="6.36684">
        <ele>266</ele>
        <time>2017-12-06T14:05:39Z</time>
      </trkpt>
      <trkpt lat="43.51749" lon="6.36679">
        <ele>266.5</ele>
        <time>2017-12-06T14:05:47Z</time>
      </trkpt>
      <trkpt lat="43.51748" lon="6.36679">
        <ele>266.5</ele>
        <time>2017-12-06T14:05:48Z</time>
      </trkpt>
      <trkpt lat="43.51735" lon="6.36667">
        <ele>267.6</ele>
        <time>2017-12-06T14:06:06Z</time>
      </trkpt>
      <trkpt lat="43.51731" lon="6.36656">
        <ele>268.6</ele>
        <time>2017-12-06T14:06:16Z</time>
      </trkpt>
      <trkpt lat="43.51732" lon="6.36644">
        <ele>269.3</ele>
        <time>2017-12-06T14:06:24Z</time>
      </trkpt>
      <trkpt lat="43.51734" lon="6.36633">
        <ele>270.1</ele>
        <time>2017-12-06T14:06:30Z</time>
      </trkpt>
      <trkpt lat="43.51735" lon="6.36621">
        <ele>270.6</ele>
        <time>2017-12-06T14:06:37Z</time>
      </trkpt>
      <trkpt lat="43.51736" lon="6.36609">
        <ele>271.3</ele>
        <time>2017-12-06T14:06:44Z</time>
      </trkpt>
      <trkpt lat="43.51736" lon="6.36598">
        <ele>271.8</ele>
        <time>2017-12-06T14:06:52Z</time>
      </trkpt>
      <trkpt lat="43.51736" lon="6.36596">
        <ele>271.9</ele>
        <time>2017-12-06T14:06:53Z</time>
      </trkpt>
      <trkpt lat="43.5174" lon="6.36576">
        <ele>272.9</ele>
        <time>2017-12-06T14:07:07Z</time>
      </trkpt>
      <trkpt lat="43.51742" lon="6.36564">
        <ele>274.5</ele>
        <time>2017-12-06T14:07:20Z</time>
      </trkpt>
      <trkpt lat="43.51749" lon="6.36558">
        <ele>275.5</ele>
        <time>2017-12-06T14:07:30Z</time>
      </trkpt>
      <trkpt lat="43.51756" lon="6.3655">
        <ele>276.2</ele>
        <time>2017-12-06T14:07:40Z</time>
      </trkpt>
      <trkpt lat="43.51763" lon="6.36544">
        <ele>277</ele>
        <time>2017-12-06T14:07:51Z</time>
      </trkpt>
      <trkpt lat="43.51771" lon="6.3654">
        <ele>278.1</ele>
        <time>2017-12-06T14:08:03Z</time>
      </trkpt>
      <trkpt lat="43.51772" lon="6.36541">
        <ele>278.2</ele>
        <time>2017-12-06T14:08:04Z</time>
      </trkpt>
      <trkpt lat="43.51789" lon="6.36537">
        <ele>279.9</ele>
        <time>2017-12-06T14:08:25Z</time>
      </trkpt>
      <trkpt lat="43.51797" lon="6.36535">
        <ele>280.9</ele>
        <time>2017-12-06T14:08:34Z</time>
      </trkpt>
      <trkpt lat="43.51805" lon="6.36534">
        <ele>281.8</ele>
        <time>2017-12-06T14:08:43Z</time>
      </trkpt>
      <trkpt lat="43.51814" lon="6.36533">
        <ele>281.7</ele>
        <time>2017-12-06T14:08:51Z</time>
      </trkpt>
      <trkpt lat="43.51822" lon="6.36534">
        <ele>282.3</ele>
        <time>2017-12-06T14:08:59Z</time>
      </trkpt>
      <trkpt lat="43.51831" lon="6.36536">
        <ele>282.6</ele>
        <time>2017-12-06T14:09:08Z</time>
      </trkpt>
      <trkpt lat="43.51832" lon="6.36536">
        <ele>282.6</ele>
        <time>2017-12-06T14:09:09Z</time>
      </trkpt>
      <trkpt lat="43.51846" lon="6.36529">
        <ele>284.9</ele>
        <time>2017-12-06T14:09:29Z</time>
      </trkpt>
      <trkpt lat="43.51853" lon="6.36523">
        <ele>285.5</ele>
        <time>2017-12-06T14:09:35Z</time>
      </trkpt>
      <trkpt lat="43.5186" lon="6.36517">
        <ele>286.3</ele>
        <time>2017-12-06T14:09:42Z</time>
      </trkpt>
      <trkpt lat="43.51868" lon="6.36511">
        <ele>287.3</ele>
        <time>2017-12-06T14:09:51Z</time>
      </trkpt>
      <trkpt lat="43.51874" lon="6.36504">
        <ele>288.3</ele>
        <time>2017-12-06T14:09:59Z</time>
      </trkpt>
      <trkpt lat="43.51878" lon="6.36494">
        <ele>289.7</ele>
        <time>2017-12-06T14:10:08Z</time>
      </trkpt>
      <trkpt lat="43.51879" lon="6.36482">
        <ele>290.6</ele>
        <time>2017-12-06T14:10:16Z</time>
      </trkpt>
      <trkpt lat="43.51879" lon="6.36481">
        <ele>290.7</ele>
        <time>2017-12-06T14:10:17Z</time>
      </trkpt>
      <trkpt lat="43.51871" lon="6.36461">
        <ele>292.9</ele>
        <time>2017-12-06T14:10:34Z</time>
      </trkpt>
      <trkpt lat="43.51865" lon="6.36452">
        <ele>294.3</ele>
        <time>2017-12-06T14:10:48Z</time>
      </trkpt>
      <trkpt lat="43.51858" lon="6.36446">
        <ele>295.1</ele>
        <time>2017-12-06T14:10:59Z</time>
      </trkpt>
      <trkpt lat="43.5185" lon="6.36442">
        <ele>295.8</ele>
        <time>2017-12-06T14:11:08Z</time>
      </trkpt>
      <trkpt lat="43.51841" lon="6.3644">
        <ele>295.4</ele>
        <time>2017-12-06T14:11:16Z</time>
      </trkpt>
      <trkpt lat="43.51833" lon="6.36436">
        <ele>295.8</ele>
        <time>2017-12-06T14:11:25Z</time>
      </trkpt>
      <trkpt lat="43.51832" lon="6.36436">
        <ele>295.8</ele>
        <time>2017-12-06T14:11:26Z</time>
      </trkpt>
      <trkpt lat="43.51819" lon="6.36426">
        <ele>297.1</ele>
        <time>2017-12-06T14:11:43Z</time>
      </trkpt>
      <trkpt lat="43.5181" lon="6.36427">
        <ele>298</ele>
        <time>2017-12-06T14:11:52Z</time>
      </trkpt>
      <trkpt lat="43.51815" lon="6.36417">
        <ele>300.4</ele>
        <time>2017-12-06T14:12:15Z</time>
      </trkpt>
      <trkpt lat="43.51824" lon="6.36413">
        <ele>301.3</ele>
        <time>2017-12-06T14:12:28Z</time>
      </trkpt>
      <trkpt lat="43.51824" lon="6.36413">
        <ele>301.4</ele>
        <time>2017-12-06T14:12:29Z</time>
      </trkpt>
      <trkpt lat="43.51838" lon="6.364">
        <ele>303.3</ele>
        <time>2017-12-06T14:12:49Z</time>
      </trkpt>
      <trkpt lat="43.51844" lon="6.36392">
        <ele>304.5</ele>
        <time>2017-12-06T14:12:59Z</time>
      </trkpt>
      <trkpt lat="43.5185" lon="6.36386">
        <ele>305.3</ele>
        <time>2017-12-06T14:13:07Z</time>
      </trkpt>
      <trkpt lat="43.51856" lon="6.3638">
        <ele>306.2</ele>
        <time>2017-12-06T14:13:13Z</time>
      </trkpt>
      <trkpt lat="43.51864" lon="6.36376">
        <ele>306.5</ele>
        <time>2017-12-06T14:13:21Z</time>
      </trkpt>
      <trkpt lat="43.51871" lon="6.36371">
        <ele>307.3</ele>
        <time>2017-12-06T14:13:31Z</time>
      </trkpt>
      <trkpt lat="43.51873" lon="6.3637">
        <ele>307.4</ele>
        <time>2017-12-06T14:13:32Z</time>
      </trkpt>
      <trkpt lat="43.51886" lon="6.36357">
        <ele>308.2</ele>
        <time>2017-12-06T14:13:57Z</time>
      </trkpt>
      <trkpt lat="43.51894" lon="6.36354">
        <ele>308.5</ele>
        <time>2017-12-06T14:14:04Z</time>
      </trkpt>
      <trkpt lat="43.51902" lon="6.36351">
        <ele>308.7</ele>
        <time>2017-12-06T14:14:22Z</time>
      </trkpt>
      <trkpt lat="43.519" lon="6.3634">
        <ele>309.2</ele>
        <time>2017-12-06T14:15:16Z</time>
      </trkpt>
      <trkpt lat="43.519" lon="6.36338">
        <ele>309.3</ele>
        <time>2017-12-06T14:15:17Z</time>
      </trkpt>
      <trkpt lat="43.51899" lon="6.36316">
        <ele>310.3</ele>
        <time>2017-12-06T14:15:34Z</time>
      </trkpt>
      <trkpt lat="43.51902" lon="6.36305">
        <ele>310.8</ele>
        <time>2017-12-06T14:15:42Z</time>
      </trkpt>
      <trkpt lat="43.51902" lon="6.36293">
        <ele>311.6</ele>
        <time>2017-12-06T14:15:52Z</time>
      </trkpt>
      <trkpt lat="43.51899" lon="6.36282">
        <ele>312.7</ele>
        <time>2017-12-06T14:16:03Z</time>
      </trkpt>
      <trkpt lat="43.51896" lon="6.36272">
        <ele>314</ele>
        <time>2017-12-06T14:16:15Z</time>
      </trkpt>
      <trkpt lat="43.5189" lon="6.36264">
        <ele>315.9</ele>
        <time>2017-12-06T14:16:29Z</time>
      </trkpt>
      <trkpt lat="43.51888" lon="6.36263">
        <ele>316.1</ele>
        <time>2017-12-06T14:16:30Z</time>
      </trkpt>
      <trkpt lat="43.51874" lon="6.36256">
        <ele>316.5</ele>
        <time>2017-12-06T14:16:38Z</time>
      </trkpt>
      <trkpt lat="43.51867" lon="6.36253">
        <ele>316.7</ele>
        <time>2017-12-06T14:16:42Z</time>
      </trkpt>
      <trkpt lat="43.51859" lon="6.36247">
        <ele>317.1</ele>
        <time>2017-12-06T14:16:52Z</time>
      </trkpt>
      <trkpt lat="43.51851" lon="6.36241">
        <ele>317.7</ele>
        <time>2017-12-06T14:17:01Z</time>
      </trkpt>
      <trkpt lat="43.51845" lon="6.36234">
        <ele>318.2</ele>
        <time>2017-12-06T14:17:09Z</time>
      </trkpt>
      <trkpt lat="43.51838" lon="6.36227">
        <ele>318.6</ele>
        <time>2017-12-06T14:17:16Z</time>
      </trkpt>
      <trkpt lat="43.51831" lon="6.3622">
        <ele>319.5</ele>
        <time>2017-12-06T14:17:24Z</time>
      </trkpt>
      <trkpt lat="43.51827" lon="6.3621">
        <ele>320.9</ele>
        <time>2017-12-06T14:17:33Z</time>
      </trkpt>
      <trkpt lat="43.51827" lon="6.36209">
        <ele>321</ele>
        <time>2017-12-06T14:17:34Z</time>
      </trkpt>
      <trkpt lat="43.51821" lon="6.36188">
        <ele>323.4</ele>
        <time>2017-12-06T14:17:53Z</time>
      </trkpt>
      <trkpt lat="43.51819" lon="6.36176">
        <ele>325.2</ele>
        <time>2017-12-06T14:18:05Z</time>
      </trkpt>
      <trkpt lat="43.51815" lon="6.36165">
        <ele>326.6</ele>
        <time>2017-12-06T14:18:17Z</time>
      </trkpt>
      <trkpt lat="43.51809" lon="6.36158">
        <ele>327.1</ele>
        <time>2017-12-06T14:18:24Z</time>
      </trkpt>
      <trkpt lat="43.51804" lon="6.36149">
        <ele>328.4</ele>
        <time>2017-12-06T14:18:31Z</time>
      </trkpt>
      <trkpt lat="43.51798" lon="6.36139">
        <ele>329.2</ele>
        <time>2017-12-06T14:18:40Z</time>
      </trkpt>
      <trkpt lat="43.51798" lon="6.36138">
        <ele>329.3</ele>
        <time>2017-12-06T14:18:41Z</time>
      </trkpt>
      <trkpt lat="43.51788" lon="6.36122">
        <ele>330.8</ele>
        <time>2017-12-06T14:18:56Z</time>
      </trkpt>
      <trkpt lat="43.51784" lon="6.36112">
        <ele>332.2</ele>
        <time>2017-12-06T14:19:06Z</time>
      </trkpt>
      <trkpt lat="43.51777" lon="6.36107">
        <ele>333.6</ele>
        <time>2017-12-06T14:19:15Z</time>
      </trkpt>
      <trkpt lat="43.51772" lon="6.36097">
        <ele>334.9</ele>
        <time>2017-12-06T14:19:25Z</time>
      </trkpt>
      <trkpt lat="43.51774" lon="6.36086">
        <ele>335.8</ele>
        <time>2017-12-06T14:19:35Z</time>
      </trkpt>
      <trkpt lat="43.51775" lon="6.36074">
        <ele>336.7</ele>
        <time>2017-12-06T14:19:46Z</time>
      </trkpt>
      <trkpt lat="43.51775" lon="6.36073">
        <ele>336.7</ele>
        <time>2017-12-06T14:19:47Z</time>
      </trkpt>
      <trkpt lat="43.5178" lon="6.36054">
        <ele>337.3</ele>
        <time>2017-12-06T14:20:03Z</time>
      </trkpt>
      <trkpt lat="43.51782" lon="6.36043">
        <ele>336.9</ele>
        <time>2017-12-06T14:20:11Z</time>
      </trkpt>
      <trkpt lat="43.51784" lon="6.36031">
        <ele>337.1</ele>
        <time>2017-12-06T14:20:19Z</time>
      </trkpt>
      <trkpt lat="43.51788" lon="6.36021">
        <ele>337.6</ele>
        <time>2017-12-06T14:20:29Z</time>
      </trkpt>
      <trkpt lat="43.51795" lon="6.36014">
        <ele>337.6</ele>
        <time>2017-12-06T14:20:36Z</time>
      </trkpt>
      <trkpt lat="43.518" lon="6.36005">
        <ele>337.5</ele>
        <time>2017-12-06T14:20:44Z</time>
      </trkpt>
      <trkpt lat="43.518" lon="6.35993">
        <ele>337.7</ele>
        <time>2017-12-06T14:22:20Z</time>
      </trkpt>
      <trkpt lat="43.518" lon="6.35993">
        <ele>337.8</ele>
        <time>2017-12-06T14:22:21Z</time>
      </trkpt>
      <trkpt lat="43.51807" lon="6.35972">
        <ele>337.2</ele>
        <time>2017-12-06T14:22:46Z</time>
      </trkpt>
      <trkpt lat="43.51812" lon="6.35962">
        <ele>336.6</ele>
        <time>2017-12-06T14:22:53Z</time>
      </trkpt>
      <trkpt lat="43.51817" lon="6.35952">
        <ele>336.2</ele>
        <time>2017-12-06T14:23:00Z</time>
      </trkpt>
      <trkpt lat="43.51821" lon="6.35945">
        <ele>336</ele>
        <time>2017-12-06T14:23:07Z</time>
      </trkpt>
      <trkpt lat="43.51826" lon="6.35934">
        <ele>335.9</ele>
        <time>2017-12-06T14:23:14Z</time>
      </trkpt>
      <trkpt lat="43.51829" lon="6.35923">
        <ele>336</ele>
        <time>2017-12-06T14:23:20Z</time>
      </trkpt>
      <trkpt lat="43.51829" lon="6.35912">
        <ele>336.1</ele>
        <time>2017-12-06T14:23:27Z</time>
      </trkpt>
      <trkpt lat="43.51829" lon="6.3591">
        <ele>336.1</ele>
        <time>2017-12-06T14:23:28Z</time>
      </trkpt>
      <trkpt lat="43.51829" lon="6.35888">
        <ele>336.7</ele>
        <time>2017-12-06T14:23:43Z</time>
      </trkpt>
      <trkpt lat="43.51825" lon="6.35878">
        <ele>337.8</ele>
        <time>2017-12-06T14:23:53Z</time>
      </trkpt>
      <trkpt lat="43.51817" lon="6.35872">
        <ele>339.6</ele>
        <time>2017-12-06T14:24:07Z</time>
      </trkpt>
      <trkpt lat="43.5181" lon="6.35866">
        <ele>340.8</ele>
        <time>2017-12-06T14:24:19Z</time>
      </trkpt>
      <trkpt lat="43.51808" lon="6.35855">
        <ele>341.4</ele>
        <time>2017-12-06T14:24:28Z</time>
      </trkpt>
      <trkpt lat="43.51808" lon="6.35854">
        <ele>341.5</ele>
        <time>2017-12-06T14:24:29Z</time>
      </trkpt>
      <trkpt lat="43.51802" lon="6.35833">
        <ele>342.4</ele>
        <time>2017-12-06T14:24:50Z</time>
      </trkpt>
      <trkpt lat="43.51797" lon="6.35824">
        <ele>342.7</ele>
        <time>2017-12-06T14:24:57Z</time>
      </trkpt>
      <trkpt lat="43.51792" lon="6.35815">
        <ele>343</ele>
        <time>2017-12-06T14:25:05Z</time>
      </trkpt>
      <trkpt lat="43.51791" lon="6.35804">
        <ele>343.1</ele>
        <time>2017-12-06T14:25:14Z</time>
      </trkpt>
      <trkpt lat="43.51785" lon="6.35798">
        <ele>343</ele>
        <time>2017-12-06T14:25:19Z</time>
      </trkpt>
      <trkpt lat="43.51778" lon="6.35791">
        <ele>343.3</ele>
        <time>2017-12-06T14:25:26Z</time>
      </trkpt>
      <trkpt lat="43.51773" lon="6.35782">
        <ele>343.2</ele>
        <time>2017-12-06T14:25:35Z</time>
      </trkpt>
      <trkpt lat="43.51772" lon="6.35781">
        <ele>343.2</ele>
        <time>2017-12-06T14:25:36Z</time>
      </trkpt>
      <trkpt lat="43.51763" lon="6.35763">
        <ele>342.7</ele>
        <time>2017-12-06T14:25:53Z</time>
      </trkpt>
      <trkpt lat="43.51758" lon="6.35755">
        <ele>342.7</ele>
        <time>2017-12-06T14:26:00Z</time>
      </trkpt>
      <trkpt lat="43.51755" lon="6.35744">
        <ele>342.3</ele>
        <time>2017-12-06T14:26:07Z</time>
      </trkpt>
      <trkpt lat="43.51755" lon="6.35733">
        <ele>342.2</ele>
        <time>2017-12-06T14:26:14Z</time>
      </trkpt>
      <trkpt lat="43.5175" lon="6.35723">
        <ele>342</ele>
        <time>2017-12-06T14:26:21Z</time>
      </trkpt>
      <trkpt lat="43.51743" lon="6.35718">
        <ele>342.4</ele>
        <time>2017-12-06T14:26:32Z</time>
      </trkpt>
      <trkpt lat="43.51737" lon="6.35711">
        <ele>342.9</ele>
        <time>2017-12-06T14:26:40Z</time>
      </trkpt>
      <trkpt lat="43.51736" lon="6.3571">
        <ele>343.1</ele>
        <time>2017-12-06T14:26:41Z</time>
      </trkpt>
      <trkpt lat="43.51721" lon="6.35714">
        <ele>342.5</ele>
        <time>2017-12-06T14:27:16Z</time>
      </trkpt>
      <trkpt lat="43.51715" lon="6.35722">
        <ele>341.5</ele>
        <time>2017-12-06T14:27:29Z</time>
      </trkpt>
      <trkpt lat="43.51711" lon="6.35733">
        <ele>341.1</ele>
        <time>2017-12-06T14:27:42Z</time>
      </trkpt>
      <trkpt lat="43.51711" lon="6.35734">
        <ele>341.1</ele>
        <time>2017-12-06T14:27:43Z</time>
      </trkpt>
      <trkpt lat="43.51702" lon="6.35753">
        <ele>340.7</ele>
        <time>2017-12-06T14:28:08Z</time>
      </trkpt>
      <trkpt lat="43.51694" lon="6.35752">
        <ele>341.2</ele>
        <time>2017-12-06T14:28:19Z</time>
      </trkpt>
      <trkpt lat="43.51685" lon="6.35752">
        <ele>341.7</ele>
        <time>2017-12-06T14:28:28Z</time>
      </trkpt>
      <trkpt lat="43.51677" lon="6.35751">
        <ele>342.8</ele>
        <time>2017-12-06T14:28:41Z</time>
      </trkpt>
      <trkpt lat="43.5167" lon="6.35745">
        <ele>343.4</ele>
        <time>2017-12-06T14:28:51Z</time>
      </trkpt>
      <trkpt lat="43.51669" lon="6.35744">
        <ele>343.5</ele>
        <time>2017-12-06T14:28:52Z</time>
      </trkpt>
      <trkpt lat="43.51656" lon="6.35733">
        <ele>344.6</ele>
        <time>2017-12-06T14:29:07Z</time>
      </trkpt>
      <trkpt lat="43.51649" lon="6.35729">
        <ele>344.9</ele>
        <time>2017-12-06T14:29:13Z</time>
      </trkpt>
      <trkpt lat="43.5164" lon="6.35727">
        <ele>345.8</ele>
        <time>2017-12-06T14:29:22Z</time>
      </trkpt>
      <trkpt lat="43.51632" lon="6.35725">
        <ele>346</ele>
        <time>2017-12-06T14:29:31Z</time>
      </trkpt>
      <trkpt lat="43.51624" lon="6.35723">
        <ele>346.5</ele>
        <time>2017-12-06T14:29:39Z</time>
      </trkpt>
      <trkpt lat="43.51616" lon="6.35723">
        <ele>347.4</ele>
        <time>2017-12-06T14:29:50Z</time>
      </trkpt>
      <trkpt lat="43.51607" lon="6.35722">
        <ele>347.6</ele>
        <time>2017-12-06T14:30:00Z</time>
      </trkpt>
      <trkpt lat="43.51607" lon="6.35721">
        <ele>347.6</ele>
        <time>2017-12-06T14:30:01Z</time>
      </trkpt>
      <trkpt lat="43.51591" lon="6.35714">
        <ele>348.6</ele>
        <time>2017-12-06T14:30:17Z</time>
      </trkpt>
      <trkpt lat="43.51583" lon="6.35714">
        <ele>348.8</ele>
        <time>2017-12-06T14:30:22Z</time>
      </trkpt>
      <trkpt lat="43.51575" lon="6.35715">
        <ele>349.1</ele>
        <time>2017-12-06T14:30:28Z</time>
      </trkpt>
      <trkpt lat="43.51567" lon="6.35713">
        <ele>349</ele>
        <time>2017-12-06T14:30:36Z</time>
      </trkpt>
      <trkpt lat="43.51559" lon="6.3571">
        <ele>349.7</ele>
        <time>2017-12-06T14:30:45Z</time>
      </trkpt>
      <trkpt lat="43.5155" lon="6.35705">
        <ele>349.9</ele>
        <time>2017-12-06T14:30:55Z</time>
      </trkpt>
      <trkpt lat="43.51542" lon="6.35704">
        <ele>349.8</ele>
        <time>2017-12-06T14:31:03Z</time>
      </trkpt>
      <trkpt lat="43.5154" lon="6.35704">
        <ele>349.8</ele>
        <time>2017-12-06T14:31:04Z</time>
      </trkpt>
      <trkpt lat="43.51526" lon="6.35713">
        <ele>349.4</ele>
        <time>2017-12-06T14:31:18Z</time>
      </trkpt>
      <trkpt lat="43.51519" lon="6.3572">
        <ele>349.6</ele>
        <time>2017-12-06T14:31:27Z</time>
      </trkpt>
      <trkpt lat="43.51511" lon="6.35725">
        <ele>349.4</ele>
        <time>2017-12-06T14:31:38Z</time>
      </trkpt>
      <trkpt lat="43.51506" lon="6.35733">
        <ele>349.5</ele>
        <time>2017-12-06T14:31:48Z</time>
      </trkpt>
      <trkpt lat="43.51499" lon="6.35741">
        <ele>349.3</ele>
        <time>2017-12-06T14:31:57Z</time>
      </trkpt>
      <trkpt lat="43.51493" lon="6.35749">
        <ele>349.5</ele>
        <time>2017-12-06T14:32:04Z</time>
      </trkpt>
      <trkpt lat="43.51489" lon="6.35758">
        <ele>349.9</ele>
        <time>2017-12-06T14:32:11Z</time>
      </trkpt>
      <trkpt lat="43.51488" lon="6.35759">
        <ele>349.7</ele>
        <time>2017-12-06T14:32:12Z</time>
      </trkpt>
      <trkpt lat="43.51478" lon="6.35775">
        <ele>349.3</ele>
        <time>2017-12-06T14:32:25Z</time>
      </trkpt>
      <trkpt lat="43.51473" lon="6.35784">
        <ele>349.2</ele>
        <time>2017-12-06T14:32:33Z</time>
      </trkpt>
      <trkpt lat="43.51471" lon="6.35795">
        <ele>349.2</ele>
        <time>2017-12-06T14:32:41Z</time>
      </trkpt>
      <trkpt lat="43.51469" lon="6.35806">
        <ele>348.7</ele>
        <time>2017-12-06T14:32:49Z</time>
      </trkpt>
      <trkpt lat="43.51467" lon="6.35817">
        <ele>349</ele>
        <time>2017-12-06T14:32:57Z</time>
      </trkpt>
      <trkpt lat="43.51468" lon="6.35828">
        <ele>349.3</ele>
        <time>2017-12-06T14:33:05Z</time>
      </trkpt>
      <trkpt lat="43.51467" lon="6.35841">
        <ele>349.2</ele>
        <time>2017-12-06T14:33:14Z</time>
      </trkpt>
      <trkpt lat="43.51467" lon="6.35842">
        <ele>349.3</ele>
        <time>2017-12-06T14:33:15Z</time>
      </trkpt>
      <trkpt lat="43.5146" lon="6.35861">
        <ele>349.4</ele>
        <time>2017-12-06T14:33:30Z</time>
      </trkpt>
      <trkpt lat="43.51455" lon="6.35871">
        <ele>349.2</ele>
        <time>2017-12-06T14:33:38Z</time>
      </trkpt>
      <trkpt lat="43.51452" lon="6.35881">
        <ele>349.3</ele>
        <time>2017-12-06T14:33:45Z</time>
      </trkpt>
      <trkpt lat="43.51448" lon="6.35892">
        <ele>349.2</ele>
        <time>2017-12-06T14:33:53Z</time>
      </trkpt>
      <trkpt lat="43.51446" lon="6.35903">
        <ele>349</ele>
        <time>2017-12-06T14:34:02Z</time>
      </trkpt>
      <trkpt lat="43.51443" lon="6.35914">
        <ele>348.8</ele>
        <time>2017-12-06T14:34:20Z</time>
      </trkpt>
      <trkpt lat="43.51442" lon="6.35915">
        <ele>348.8</ele>
        <time>2017-12-06T14:34:21Z</time>
      </trkpt>
      <trkpt lat="43.51427" lon="6.3592">
        <ele>348.3</ele>
        <time>2017-12-06T14:34:50Z</time>
      </trkpt>
      <trkpt lat="43.51435" lon="6.35922">
        <ele>347.7</ele>
        <time>2017-12-06T14:35:35Z</time>
      </trkpt>
      <trkpt lat="43.51436" lon="6.35922">
        <ele>347.7</ele>
        <time>2017-12-06T14:35:36Z</time>
      </trkpt>
      <trkpt lat="43.51442" lon="6.35934">
        <ele>348.1</ele>
        <time>2017-12-06T14:38:20Z</time>
      </trkpt>
      <trkpt lat="43.51442" lon="6.35934">
        <ele>348</ele>
        <time>2017-12-06T14:38:21Z</time>
      </trkpt>
      <trkpt lat="43.51445" lon="6.35957">
        <ele>346.9</ele>
        <time>2017-12-06T14:39:06Z</time>
      </trkpt>
      <trkpt lat="43.51453" lon="6.35964">
        <ele>345.5</ele>
        <time>2017-12-06T14:39:19Z</time>
      </trkpt>
      <trkpt lat="43.5146" lon="6.35969">
        <ele>343.7</ele>
        <time>2017-12-06T14:39:33Z</time>
      </trkpt>
      <trkpt lat="43.51461" lon="6.3597">
        <ele>343.7</ele>
        <time>2017-12-06T14:39:34Z</time>
      </trkpt>
      <trkpt lat="43.51475" lon="6.35978">
        <ele>340.5</ele>
        <time>2017-12-06T14:39:59Z</time>
      </trkpt>
      <trkpt lat="43.51479" lon="6.35988">
        <ele>338.7</ele>
        <time>2017-12-06T14:40:16Z</time>
      </trkpt>
      <trkpt lat="43.5148" lon="6.36001">
        <ele>336.5</ele>
        <time>2017-12-06T14:40:31Z</time>
      </trkpt>
      <trkpt lat="43.51477" lon="6.36012">
        <ele>334.8</ele>
        <time>2017-12-06T14:40:41Z</time>
      </trkpt>
      <trkpt lat="43.51477" lon="6.36012">
        <ele>334.6</ele>
        <time>2017-12-06T14:40:42Z</time>
      </trkpt>
      <trkpt lat="43.51475" lon="6.36034">
        <ele>332.2</ele>
        <time>2017-12-06T14:40:59Z</time>
      </trkpt>
      <trkpt lat="43.51469" lon="6.36042">
        <ele>331</ele>
        <time>2017-12-06T14:41:06Z</time>
      </trkpt>
      <trkpt lat="43.51464" lon="6.36051">
        <ele>330</ele>
        <time>2017-12-06T14:41:14Z</time>
      </trkpt>
      <trkpt lat="43.51464" lon="6.36063">
        <ele>328.3</ele>
        <time>2017-12-06T14:41:23Z</time>
      </trkpt>
      <trkpt lat="43.51467" lon="6.36074">
        <ele>326.6</ele>
        <time>2017-12-06T14:41:36Z</time>
      </trkpt>
      <trkpt lat="43.51471" lon="6.36085">
        <ele>323.6</ele>
        <time>2017-12-06T14:42:01Z</time>
      </trkpt>
      <trkpt lat="43.51471" lon="6.36086">
        <ele>323.2</ele>
        <time>2017-12-06T14:42:02Z</time>
      </trkpt>
      <trkpt lat="43.51472" lon="6.36108">
        <ele>319.7</ele>
        <time>2017-12-06T14:42:32Z</time>
      </trkpt>
      <trkpt lat="43.51464" lon="6.36112">
        <ele>318.7</ele>
        <time>2017-12-06T14:42:40Z</time>
      </trkpt>
      <trkpt lat="43.51458" lon="6.36121">
        <ele>318.3</ele>
        <time>2017-12-06T14:42:53Z</time>
      </trkpt>
      <trkpt lat="43.51456" lon="6.36132">
        <ele>316.8</ele>
        <time>2017-12-06T14:43:09Z</time>
      </trkpt>
      <trkpt lat="43.51456" lon="6.36134">
        <ele>316.6</ele>
        <time>2017-12-06T14:43:10Z</time>
      </trkpt>
      <trkpt lat="43.51466" lon="6.36152">
        <ele>313</ele>
        <time>2017-12-06T14:43:37Z</time>
      </trkpt>
      <trkpt lat="43.51474" lon="6.36155">
        <ele>311.5</ele>
        <time>2017-12-06T14:43:50Z</time>
      </trkpt>
      <trkpt lat="43.51482" lon="6.3616">
        <ele>310.4</ele>
        <time>2017-12-06T14:44:00Z</time>
      </trkpt>
      <trkpt lat="43.51491" lon="6.36162">
        <ele>307.9</ele>
        <time>2017-12-06T14:44:25Z</time>
      </trkpt>
      <trkpt lat="43.51492" lon="6.36164">
        <ele>307.7</ele>
        <time>2017-12-06T14:44:26Z</time>
      </trkpt>
      <trkpt lat="43.51484" lon="6.36184">
        <ele>304.1</ele>
        <time>2017-12-06T14:44:57Z</time>
      </trkpt>
      <trkpt lat="43.51477" lon="6.3619">
        <ele>302.9</ele>
        <time>2017-12-06T14:45:08Z</time>
      </trkpt>
      <trkpt lat="43.51469" lon="6.36193">
        <ele>302.1</ele>
        <time>2017-12-06T14:45:17Z</time>
      </trkpt>
      <trkpt lat="43.5146" lon="6.36193">
        <ele>301.7</ele>
        <time>2017-12-06T14:45:23Z</time>
      </trkpt>
      <trkpt lat="43.51452" lon="6.36195">
        <ele>300.5</ele>
        <time>2017-12-06T14:45:30Z</time>
      </trkpt>
      <trkpt lat="43.51452" lon="6.36196">
        <ele>300.5</ele>
        <time>2017-12-06T14:45:31Z</time>
      </trkpt>
      <trkpt lat="43.51438" lon="6.36207">
        <ele>299.4</ele>
        <time>2017-12-06T14:45:48Z</time>
      </trkpt>
      <trkpt lat="43.51431" lon="6.36214">
        <ele>298.8</ele>
        <time>2017-12-06T14:46:02Z</time>
      </trkpt>
      <trkpt lat="43.51424" lon="6.36222">
        <ele>297.8</ele>
        <time>2017-12-06T14:46:11Z</time>
      </trkpt>
      <trkpt lat="43.51417" lon="6.36229">
        <ele>297.2</ele>
        <time>2017-12-06T14:46:20Z</time>
      </trkpt>
      <trkpt lat="43.5141" lon="6.36233">
        <ele>296.4</ele>
        <time>2017-12-06T14:46:28Z</time>
      </trkpt>
      <trkpt lat="43.51402" lon="6.36237">
        <ele>295.1</ele>
        <time>2017-12-06T14:46:36Z</time>
      </trkpt>
      <trkpt lat="43.51401" lon="6.36237">
        <ele>294.8</ele>
        <time>2017-12-06T14:46:37Z</time>
      </trkpt>
      <trkpt lat="43.5139" lon="6.36252">
        <ele>292</ele>
        <time>2017-12-06T14:46:55Z</time>
      </trkpt>
      <trkpt lat="43.5139" lon="6.36263">
        <ele>290.8</ele>
        <time>2017-12-06T14:47:05Z</time>
      </trkpt>
      <trkpt lat="43.51383" lon="6.3627">
        <ele>289.8</ele>
        <time>2017-12-06T14:47:26Z</time>
      </trkpt>
      <trkpt lat="43.51377" lon="6.36262">
        <ele>289.8</ele>
        <time>2017-12-06T14:47:36Z</time>
      </trkpt>
      <trkpt lat="43.51371" lon="6.36253">
        <ele>289.4</ele>
        <time>2017-12-06T14:47:45Z</time>
      </trkpt>
      <trkpt lat="43.51371" lon="6.36252">
        <ele>289.4</ele>
        <time>2017-12-06T14:47:46Z</time>
      </trkpt>
      <trkpt lat="43.5136" lon="6.36237">
        <ele>288.2</ele>
        <time>2017-12-06T14:48:01Z</time>
      </trkpt>
      <trkpt lat="43.51355" lon="6.36227">
        <ele>287.5</ele>
        <time>2017-12-06T14:48:11Z</time>
      </trkpt>
      <trkpt lat="43.5135" lon="6.36217">
        <ele>287.4</ele>
        <time>2017-12-06T14:48:21Z</time>
      </trkpt>
      <trkpt lat="43.51344" lon="6.36208">
        <ele>286.9</ele>
        <time>2017-12-06T14:48:30Z</time>
      </trkpt>
      <trkpt lat="43.51338" lon="6.36202">
        <ele>286.9</ele>
        <time>2017-12-06T14:48:39Z</time>
      </trkpt>
      <trkpt lat="43.5133" lon="6.36197">
        <ele>286.4</ele>
        <time>2017-12-06T14:48:46Z</time>
      </trkpt>
      <trkpt lat="43.51329" lon="6.36197">
        <ele>286.3</ele>
        <time>2017-12-06T14:48:47Z</time>
      </trkpt>
      <trkpt lat="43.51325" lon="6.36203">
        <ele>282</ele>
        <time>2017-12-06T14:49:38Z</time>
      </trkpt>
      <trkpt lat="43.51319" lon="6.36195">
        <ele>281.7</ele>
        <time>2017-12-06T14:49:50Z</time>
      </trkpt>
      <trkpt lat="43.51318" lon="6.36194">
        <ele>281.7</ele>
        <time>2017-12-06T14:49:51Z</time>
      </trkpt>
      <trkpt lat="43.51314" lon="6.36174">
        <ele>280.4</ele>
        <time>2017-12-06T14:50:13Z</time>
      </trkpt>
      <trkpt lat="43.51314" lon="6.36162">
        <ele>280.3</ele>
        <time>2017-12-06T14:50:23Z</time>
      </trkpt>
      <trkpt lat="43.51311" lon="6.3615">
        <ele>278.9</ele>
        <time>2017-12-06T14:50:34Z</time>
      </trkpt>
      <trkpt lat="43.5131" lon="6.36138">
        <ele>278.3</ele>
        <time>2017-12-06T14:50:44Z</time>
      </trkpt>
      <trkpt lat="43.51309" lon="6.36127">
        <ele>277.7</ele>
        <time>2017-12-06T14:50:54Z</time>
      </trkpt>
      <trkpt lat="43.51308" lon="6.36126">
        <ele>277.6</ele>
        <time>2017-12-06T14:50:55Z</time>
      </trkpt>
      <trkpt lat="43.51307" lon="6.36103">
        <ele>276.4</ele>
        <time>2017-12-06T14:51:16Z</time>
      </trkpt>
      <trkpt lat="43.51304" lon="6.36091">
        <ele>275.6</ele>
        <time>2017-12-06T14:51:31Z</time>
      </trkpt>
      <trkpt lat="43.51301" lon="6.3608">
        <ele>274.8</ele>
        <time>2017-12-06T14:52:05Z</time>
      </trkpt>
      <trkpt lat="43.513" lon="6.36079">
        <ele>274.7</ele>
        <time>2017-12-06T14:52:06Z</time>
      </trkpt>
      <trkpt lat="43.51294" lon="6.3606">
        <ele>274.9</ele>
        <time>2017-12-06T14:52:25Z</time>
      </trkpt>
      <trkpt lat="43.51289" lon="6.36051">
        <ele>274.8</ele>
        <time>2017-12-06T14:52:34Z</time>
      </trkpt>
      <trkpt lat="43.51283" lon="6.36042">
        <ele>275.2</ele>
        <time>2017-12-06T14:52:43Z</time>
      </trkpt>
      <trkpt lat="43.51277" lon="6.36034">
        <ele>275.1</ele>
        <time>2017-12-06T14:52:52Z</time>
      </trkpt>
      <trkpt lat="43.51271" lon="6.36026">
        <ele>276.2</ele>
        <time>2017-12-06T14:53:04Z</time>
      </trkpt>
      <trkpt lat="43.51267" lon="6.36015">
        <ele>276.8</ele>
        <time>2017-12-06T14:53:15Z</time>
      </trkpt>
      <trkpt lat="43.51268" lon="6.36014">
        <ele>277</ele>
        <time>2017-12-06T14:53:16Z</time>
      </trkpt>
      <trkpt lat="43.51276" lon="6.35995">
        <ele>278.2</ele>
        <time>2017-12-06T14:53:30Z</time>
      </trkpt>
      <trkpt lat="43.51278" lon="6.35984">
        <ele>279.4</ele>
        <time>2017-12-06T14:53:41Z</time>
      </trkpt>
      <trkpt lat="43.51277" lon="6.35972">
        <ele>281.1</ele>
        <time>2017-12-06T14:53:52Z</time>
      </trkpt>
      <trkpt lat="43.51278" lon="6.3596">
        <ele>282.1</ele>
        <time>2017-12-06T14:54:03Z</time>
      </trkpt>
      <trkpt lat="43.51281" lon="6.3595">
        <ele>283.9</ele>
        <time>2017-12-06T14:54:18Z</time>
      </trkpt>
      <trkpt lat="43.51281" lon="6.35949">
        <ele>284.1</ele>
        <time>2017-12-06T14:54:19Z</time>
      </trkpt>
      <trkpt lat="43.51285" lon="6.35926">
        <ele>285.7</ele>
        <time>2017-12-06T14:54:36Z</time>
      </trkpt>
      <trkpt lat="43.51281" lon="6.35916">
        <ele>285.4</ele>
        <time>2017-12-06T14:54:47Z</time>
      </trkpt>
      <trkpt lat="43.51283" lon="6.35903">
        <ele>285.9</ele>
        <time>2017-12-06T14:55:01Z</time>
      </trkpt>
      <trkpt lat="43.51285" lon="6.35892">
        <ele>286</ele>
        <time>2017-12-06T14:55:09Z</time>
      </trkpt>
      <trkpt lat="43.51288" lon="6.35881">
        <ele>285.4</ele>
        <time>2017-12-06T14:55:16Z</time>
      </trkpt>
      <trkpt lat="43.51289" lon="6.3587">
        <ele>285</ele>
        <time>2017-12-06T14:55:24Z</time>
      </trkpt>
      <trkpt lat="43.51291" lon="6.35868">
        <ele>284.9</ele>
        <time>2017-12-06T14:55:25Z</time>
      </trkpt>
      <trkpt lat="43.51294" lon="6.35849">
        <ele>284.5</ele>
        <time>2017-12-06T14:55:41Z</time>
      </trkpt>
      <trkpt lat="43.51289" lon="6.35838">
        <ele>284.1</ele>
        <time>2017-12-06T14:55:50Z</time>
      </trkpt>
      <trkpt lat="43.51283" lon="6.3583">
        <ele>284.3</ele>
        <time>2017-12-06T14:55:58Z</time>
      </trkpt>
      <trkpt lat="43.51277" lon="6.35821">
        <ele>284.4</ele>
        <time>2017-12-06T14:56:09Z</time>
      </trkpt>
      <trkpt lat="43.51272" lon="6.35811">
        <ele>284.4</ele>
        <time>2017-12-06T14:56:22Z</time>
      </trkpt>
      <trkpt lat="43.51267" lon="6.35802">
        <ele>284.8</ele>
        <time>2017-12-06T14:56:32Z</time>
      </trkpt>
      <trkpt lat="43.51266" lon="6.35802">
        <ele>284.9</ele>
        <time>2017-12-06T14:56:33Z</time>
      </trkpt>
      <trkpt lat="43.51263" lon="6.35783">
        <ele>284.8</ele>
        <time>2017-12-06T14:57:05Z</time>
      </trkpt>
      <trkpt lat="43.51266" lon="6.35771">
        <ele>284.7</ele>
        <time>2017-12-06T14:57:16Z</time>
      </trkpt>
      <trkpt lat="43.51267" lon="6.35759">
        <ele>284.5</ele>
        <time>2017-12-06T14:57:28Z</time>
      </trkpt>
      <trkpt lat="43.51268" lon="6.35748">
        <ele>284.1</ele>
        <time>2017-12-06T14:57:38Z</time>
      </trkpt>
      <trkpt lat="43.51269" lon="6.35747">
        <ele>284.1</ele>
        <time>2017-12-06T14:57:39Z</time>
      </trkpt>
      <trkpt lat="43.51271" lon="6.35726">
        <ele>284.3</ele>
        <time>2017-12-06T14:57:54Z</time>
      </trkpt>
      <trkpt lat="43.5127" lon="6.35715">
        <ele>284.3</ele>
        <time>2017-12-06T14:58:01Z</time>
      </trkpt>
      <trkpt lat="43.5127" lon="6.35702">
        <ele>284.3</ele>
        <time>2017-12-06T14:58:08Z</time>
      </trkpt>
      <trkpt lat="43.51272" lon="6.35691">
        <ele>284.4</ele>
        <time>2017-12-06T14:58:15Z</time>
      </trkpt>
      <trkpt lat="43.51274" lon="6.3568">
        <ele>284.5</ele>
        <time>2017-12-06T14:58:23Z</time>
      </trkpt>
      <trkpt lat="43.51278" lon="6.35671">
        <ele>284.6</ele>
        <time>2017-12-06T14:58:27Z</time>
      </trkpt>
      <trkpt lat="43.51281" lon="6.3566">
        <ele>284.7</ele>
        <time>2017-12-06T14:58:32Z</time>
      </trkpt>
      <trkpt lat="43.51281" lon="6.35648">
        <ele>284.9</ele>
        <time>2017-12-06T14:58:42Z</time>
      </trkpt>
      <trkpt lat="43.51281" lon="6.35647">
        <ele>285</ele>
        <time>2017-12-06T14:58:43Z</time>
      </trkpt>
      <trkpt lat="43.51278" lon="6.35626">
        <ele>285.5</ele>
        <time>2017-12-06T14:58:59Z</time>
      </trkpt>
      <trkpt lat="43.51275" lon="6.35615">
        <ele>286.1</ele>
        <time>2017-12-06T14:59:08Z</time>
      </trkpt>
      <trkpt lat="43.51272" lon="6.35604">
        <ele>286.5</ele>
        <time>2017-12-06T14:59:18Z</time>
      </trkpt>
      <trkpt lat="43.51269" lon="6.35592">
        <ele>286.9</ele>
        <time>2017-12-06T14:59:28Z</time>
      </trkpt>
      <trkpt lat="43.51266" lon="6.35581">
        <ele>286.5</ele>
        <time>2017-12-06T14:59:36Z</time>
      </trkpt>
      <trkpt lat="43.51261" lon="6.35571">
        <ele>287</ele>
        <time>2017-12-06T14:59:45Z</time>
      </trkpt>
      <trkpt lat="43.51261" lon="6.35569">
        <ele>287.2</ele>
        <time>2017-12-06T14:59:46Z</time>
      </trkpt>
      <trkpt lat="43.5126" lon="6.3555">
        <ele>287.4</ele>
        <time>2017-12-06T14:59:59Z</time>
      </trkpt>
      <trkpt lat="43.51263" lon="6.35539">
        <ele>287.4</ele>
        <time>2017-12-06T15:00:04Z</time>
      </trkpt>
      <trkpt lat="43.51263" lon="6.35527">
        <ele>287.4</ele>
        <time>2017-12-06T15:00:10Z</time>
      </trkpt>
      <trkpt lat="43.51261" lon="6.35517">
        <ele>287.8</ele>
        <time>2017-12-06T15:00:16Z</time>
      </trkpt>
      <trkpt lat="43.51263" lon="6.35506">
        <ele>287.8</ele>
        <time>2017-12-06T15:00:21Z</time>
      </trkpt>
      <trkpt lat="43.51265" lon="6.35497">
        <ele>287.9</ele>
        <time>2017-12-06T15:00:26Z</time>
      </trkpt>
      <trkpt lat="43.51268" lon="6.35486">
        <ele>288</ele>
        <time>2017-12-06T15:00:31Z</time>
      </trkpt>
      <trkpt lat="43.51268" lon="6.35475">
        <ele>288.2</ele>
        <time>2017-12-06T15:00:37Z</time>
      </trkpt>
      <trkpt lat="43.51267" lon="6.35463">
        <ele>288.3</ele>
        <time>2017-12-06T15:00:46Z</time>
      </trkpt>
      <trkpt lat="43.51267" lon="6.35462">
        <ele>288.3</ele>
        <time>2017-12-06T15:00:47Z</time>
      </trkpt>
      <trkpt lat="43.5127" lon="6.35441">
        <ele>288.8</ele>
        <time>2017-12-06T15:01:06Z</time>
      </trkpt>
      <trkpt lat="43.5127" lon="6.35429">
        <ele>288.7</ele>
        <time>2017-12-06T15:01:13Z</time>
      </trkpt>
      <trkpt lat="43.51272" lon="6.35417">
        <ele>289</ele>
        <time>2017-12-06T15:01:23Z</time>
      </trkpt>
      <trkpt lat="43.51271" lon="6.35406">
        <ele>289.4</ele>
        <time>2017-12-06T15:01:33Z</time>
      </trkpt>
      <trkpt lat="43.51271" lon="6.35394">
        <ele>289.1</ele>
        <time>2017-12-06T15:01:41Z</time>
      </trkpt>
      <trkpt lat="43.51274" lon="6.35383">
        <ele>289.5</ele>
        <time>2017-12-06T15:01:48Z</time>
      </trkpt>
      <trkpt lat="43.51275" lon="6.35381">
        <ele>289.4</ele>
        <time>2017-12-06T15:01:49Z</time>
      </trkpt>
      <trkpt lat="43.51281" lon="6.35363">
        <ele>289.8</ele>
        <time>2017-12-06T15:01:59Z</time>
      </trkpt>
      <trkpt lat="43.51283" lon="6.35353">
        <ele>289.9</ele>
        <time>2017-12-06T15:02:06Z</time>
      </trkpt>
      <trkpt lat="43.51285" lon="6.35342">
        <ele>290.2</ele>
        <time>2017-12-06T15:02:12Z</time>
      </trkpt>
      <trkpt lat="43.51287" lon="6.3533">
        <ele>290.1</ele>
        <time>2017-12-06T15:02:20Z</time>
      </trkpt>
      <trkpt lat="43.5129" lon="6.35319">
        <ele>290.1</ele>
        <time>2017-12-06T15:02:28Z</time>
      </trkpt>
      <trkpt lat="43.51293" lon="6.35307">
        <ele>290.3</ele>
        <time>2017-12-06T15:02:37Z</time>
      </trkpt>
      <trkpt lat="43.51297" lon="6.35298">
        <ele>290.4</ele>
        <time>2017-12-06T15:02:43Z</time>
      </trkpt>
      <trkpt lat="43.51301" lon="6.35287">
        <ele>290.6</ele>
        <time>2017-12-06T15:02:49Z</time>
      </trkpt>
      <trkpt lat="43.51302" lon="6.35285">
        <ele>290.5</ele>
        <time>2017-12-06T15:02:50Z</time>
      </trkpt>
      <trkpt lat="43.51307" lon="6.35267">
        <ele>290.7</ele>
        <time>2017-12-06T15:03:02Z</time>
      </trkpt>
      <trkpt lat="43.51311" lon="6.35256">
        <ele>290.7</ele>
        <time>2017-12-06T15:03:09Z</time>
      </trkpt>
      <trkpt lat="43.51313" lon="6.35245">
        <ele>291</ele>
        <time>2017-12-06T15:03:17Z</time>
      </trkpt>
      <trkpt lat="43.51316" lon="6.35234">
        <ele>291</ele>
        <time>2017-12-06T15:03:25Z</time>
      </trkpt>
      <trkpt lat="43.51319" lon="6.35223">
        <ele>291</ele>
        <time>2017-12-06T15:03:34Z</time>
      </trkpt>
      <trkpt lat="43.51322" lon="6.35212">
        <ele>291</ele>
        <time>2017-12-06T15:03:42Z</time>
      </trkpt>
      <trkpt lat="43.51323" lon="6.352">
        <ele>291.6</ele>
        <time>2017-12-06T15:03:54Z</time>
      </trkpt>
      <trkpt lat="43.51323" lon="6.35199">
        <ele>291.7</ele>
        <time>2017-12-06T15:03:55Z</time>
      </trkpt>
      <trkpt lat="43.51332" lon="6.35181">
        <ele>292.9</ele>
        <time>2017-12-06T15:04:17Z</time>
      </trkpt>
      <trkpt lat="43.51337" lon="6.3517">
        <ele>292.8</ele>
        <time>2017-12-06T15:04:25Z</time>
      </trkpt>
      <trkpt lat="43.51342" lon="6.3516">
        <ele>292.7</ele>
        <time>2017-12-06T15:04:32Z</time>
      </trkpt>
      <trkpt lat="43.51345" lon="6.3515">
        <ele>292.6</ele>
        <time>2017-12-06T15:04:38Z</time>
      </trkpt>
      <trkpt lat="43.51348" lon="6.3514">
        <ele>292.6</ele>
        <time>2017-12-06T15:04:46Z</time>
      </trkpt>
      <trkpt lat="43.5135" lon="6.35128">
        <ele>292.7</ele>
        <time>2017-12-06T15:04:56Z</time>
      </trkpt>
      <trkpt lat="43.5135" lon="6.35127">
        <ele>292.6</ele>
        <time>2017-12-06T15:04:57Z</time>
      </trkpt>
      <trkpt lat="43.51347" lon="6.35104">
        <ele>292.8</ele>
        <time>2017-12-06T15:05:17Z</time>
      </trkpt>
      <trkpt lat="43.51348" lon="6.35092">
        <ele>293.6</ele>
        <time>2017-12-06T15:05:34Z</time>
      </trkpt>
      <trkpt lat="43.51351" lon="6.35082">
        <ele>294.1</ele>
        <time>2017-12-06T15:05:42Z</time>
      </trkpt>
      <trkpt lat="43.51355" lon="6.35071">
        <ele>294.3</ele>
        <time>2017-12-06T15:05:52Z</time>
      </trkpt>
      <trkpt lat="43.51358" lon="6.3506">
        <ele>294.5</ele>
        <time>2017-12-06T15:06:02Z</time>
      </trkpt>
      <trkpt lat="43.51358" lon="6.35058">
        <ele>294.5</ele>
        <time>2017-12-06T15:06:03Z</time>
      </trkpt>
      <trkpt lat="43.51356" lon="6.35038">
        <ele>294.5</ele>
        <time>2017-12-06T15:06:18Z</time>
      </trkpt>
      <trkpt lat="43.51359" lon="6.35026">
        <ele>294.9</ele>
        <time>2017-12-06T15:06:29Z</time>
      </trkpt>
      <trkpt lat="43.5136" lon="6.35014">
        <ele>295</ele>
        <time>2017-12-06T15:06:37Z</time>
      </trkpt>
      <trkpt lat="43.51357" lon="6.35004">
        <ele>295.4</ele>
        <time>2017-12-06T15:06:46Z</time>
      </trkpt>
      <trkpt lat="43.51353" lon="6.34993">
        <ele>295.7</ele>
        <time>2017-12-06T15:06:57Z</time>
      </trkpt>
      <trkpt lat="43.51356" lon="6.34981">
        <ele>296.3</ele>
        <time>2017-12-06T15:07:06Z</time>
      </trkpt>
      <trkpt lat="43.51356" lon="6.34981">
        <ele>296.4</ele>
        <time>2017-12-06T15:07:07Z</time>
      </trkpt>
      <trkpt lat="43.51357" lon="6.34961">
        <ele>296.4</ele>
        <time>2017-12-06T15:07:21Z</time>
      </trkpt>
      <trkpt lat="43.51358" lon="6.3495">
        <ele>296.4</ele>
        <time>2017-12-06T15:07:25Z</time>
      </trkpt>
      <trkpt lat="43.51358" lon="6.34939">
        <ele>296.4</ele>
        <time>2017-12-06T15:07:30Z</time>
      </trkpt>
      <trkpt lat="43.51355" lon="6.34928">
        <ele>296.5</ele>
        <time>2017-12-06T15:07:36Z</time>
      </trkpt>
      <trkpt lat="43.51352" lon="6.34917">
        <ele>296.6</ele>
        <time>2017-12-06T15:07:41Z</time>
      </trkpt>
      <trkpt lat="43.5135" lon="6.34907">
        <ele>296.7</ele>
        <time>2017-12-06T15:07:46Z</time>
      </trkpt>
      <trkpt lat="43.5135" lon="6.34894">
        <ele>297</ele>
        <time>2017-12-06T15:07:52Z</time>
      </trkpt>
      <trkpt lat="43.51347" lon="6.34884">
        <ele>297.3</ele>
        <time>2017-12-06T15:07:57Z</time>
      </trkpt>
      <trkpt lat="43.51347" lon="6.34872">
        <ele>297.7</ele>
        <time>2017-12-06T15:08:02Z</time>
      </trkpt>
      <trkpt lat="43.51345" lon="6.34863">
        <ele>297.9</ele>
        <time>2017-12-06T15:08:06Z</time>
      </trkpt>
      <trkpt lat="43.51343" lon="6.34851">
        <ele>297.8</ele>
        <time>2017-12-06T15:08:11Z</time>
      </trkpt>
      <trkpt lat="43.51343" lon="6.3485">
        <ele>297.9</ele>
        <time>2017-12-06T15:08:12Z</time>
      </trkpt>
      <trkpt lat="43.51335" lon="6.34831">
        <ele>298.1</ele>
        <time>2017-12-06T15:08:23Z</time>
      </trkpt>
      <trkpt lat="43.51334" lon="6.34821">
        <ele>297.8</ele>
        <time>2017-12-06T15:08:29Z</time>
      </trkpt>
      <trkpt lat="43.51333" lon="6.3481">
        <ele>297.8</ele>
        <time>2017-12-06T15:08:35Z</time>
      </trkpt>
      <trkpt lat="43.51329" lon="6.34799">
        <ele>298.1</ele>
        <time>2017-12-06T15:08:45Z</time>
      </trkpt>
      <trkpt lat="43.51322" lon="6.34793">
        <ele>298</ele>
        <time>2017-12-06T15:08:52Z</time>
      </trkpt>
      <trkpt lat="43.51316" lon="6.34785">
        <ele>298.1</ele>
        <time>2017-12-06T15:08:59Z</time>
      </trkpt>
      <trkpt lat="43.51311" lon="6.34776">
        <ele>298.1</ele>
        <time>2017-12-06T15:09:06Z</time>
      </trkpt>
      <trkpt lat="43.51306" lon="6.34767">
        <ele>298.3</ele>
        <time>2017-12-06T15:09:16Z</time>
      </trkpt>
      <trkpt lat="43.51306" lon="6.34766">
        <ele>298.3</ele>
        <time>2017-12-06T15:09:17Z</time>
      </trkpt>
      <trkpt lat="43.51309" lon="6.34743">
        <ele>302.2</ele>
        <time>2017-12-06T15:09:57Z</time>
      </trkpt>
      <trkpt lat="43.51316" lon="6.34737">
        <ele>302.1</ele>
        <time>2017-12-06T15:10:04Z</time>
      </trkpt>
      <trkpt lat="43.51314" lon="6.34726">
        <ele>302.2</ele>
        <time>2017-12-06T15:10:46Z</time>
      </trkpt>
      <trkpt lat="43.51313" lon="6.34725">
        <ele>302.1</ele>
        <time>2017-12-06T15:10:47Z</time>
      </trkpt>
      <trkpt lat="43.51297" lon="6.34729">
        <ele>301.9</ele>
        <time>2017-12-06T15:11:17Z</time>
      </trkpt>
      <trkpt lat="43.51289" lon="6.34724">
        <ele>302.2</ele>
        <time>2017-12-06T15:12:44Z</time>
      </trkpt>
      <trkpt lat="43.51289" lon="6.34723">
        <ele>302.2</ele>
        <time>2017-12-06T15:12:45Z</time>
      </trkpt>
      <trkpt lat="43.51292" lon="6.34719">
        <ele>302.2</ele>
        <time>2017-12-06T15:13:15Z</time>
      </trkpt>
      <trkpt lat="43.51286" lon="6.34728">
        <ele>301.9</ele>
        <time>2017-12-06T15:13:28Z</time>
      </trkpt>
      <trkpt lat="43.51279" lon="6.34734">
        <ele>302</ele>
        <time>2017-12-06T15:13:38Z</time>
      </trkpt>
      <trkpt lat="43.51272" lon="6.3474">
        <ele>302.3</ele>
        <time>2017-12-06T15:13:47Z</time>
      </trkpt>
      <trkpt lat="43.51271" lon="6.34741">
        <ele>302.3</ele>
        <time>2017-12-06T15:13:48Z</time>
      </trkpt>
      <trkpt lat="43.51264" lon="6.3476">
        <ele>303.5</ele>
        <time>2017-12-06T15:14:06Z</time>
      </trkpt>
      <trkpt lat="43.51259" lon="6.34769">
        <ele>304.2</ele>
        <time>2017-12-06T15:14:17Z</time>
      </trkpt>
      <trkpt lat="43.51251" lon="6.34775">
        <ele>305</ele>
        <time>2017-12-06T15:14:26Z</time>
      </trkpt>
      <trkpt lat="43.51244" lon="6.3478">
        <ele>306.1</ele>
        <time>2017-12-06T15:14:34Z</time>
      </trkpt>
      <trkpt lat="43.51237" lon="6.34786">
        <ele>306.6</ele>
        <time>2017-12-06T15:14:40Z</time>
      </trkpt>
      <trkpt lat="43.51229" lon="6.34792">
        <ele>307.3</ele>
        <time>2017-12-06T15:14:49Z</time>
      </trkpt>
      <trkpt lat="43.51229" lon="6.34793">
        <ele>307.4</ele>
        <time>2017-12-06T15:14:50Z</time>
      </trkpt>
      <trkpt lat="43.51215" lon="6.34803">
        <ele>308.9</ele>
        <time>2017-12-06T15:15:06Z</time>
      </trkpt>
      <trkpt lat="43.51208" lon="6.34807">
        <ele>309.4</ele>
        <time>2017-12-06T15:15:12Z</time>
      </trkpt>
      <trkpt lat="43.512" lon="6.34811">
        <ele>309.7</ele>
        <time>2017-12-06T15:15:19Z</time>
      </trkpt>
      <trkpt lat="43.51192" lon="6.34815">
        <ele>310.3</ele>
        <time>2017-12-06T15:15:26Z</time>
      </trkpt>
      <trkpt lat="43.51184" lon="6.34818">
        <ele>310.4</ele>
        <time>2017-12-06T15:15:31Z</time>
      </trkpt>
      <trkpt lat="43.51176" lon="6.34822">
        <ele>310.6</ele>
        <time>2017-12-06T15:15:36Z</time>
      </trkpt>
      <trkpt lat="43.51168" lon="6.34826">
        <ele>310.8</ele>
        <time>2017-12-06T15:15:42Z</time>
      </trkpt>
      <trkpt lat="43.51161" lon="6.34831">
        <ele>311.3</ele>
        <time>2017-12-06T15:15:49Z</time>
      </trkpt>
      <trkpt lat="43.51153" lon="6.34837">
        <ele>312.1</ele>
        <time>2017-12-06T15:15:58Z</time>
      </trkpt>
      <trkpt lat="43.51153" lon="6.34838">
        <ele>312.2</ele>
        <time>2017-12-06T15:15:59Z</time>
      </trkpt>
      <trkpt lat="43.51142" lon="6.34856">
        <ele>313.6</ele>
        <time>2017-12-06T15:16:17Z</time>
      </trkpt>
      <trkpt lat="43.51136" lon="6.34864">
        <ele>314.1</ele>
        <time>2017-12-06T15:16:24Z</time>
      </trkpt>
      <trkpt lat="43.51131" lon="6.34873">
        <ele>314.3</ele>
        <time>2017-12-06T15:16:34Z</time>
      </trkpt>
      <trkpt lat="43.51124" lon="6.34881">
        <ele>314.6</ele>
        <time>2017-12-06T15:16:44Z</time>
      </trkpt>
      <trkpt lat="43.51116" lon="6.34885">
        <ele>314.8</ele>
        <time>2017-12-06T15:16:50Z</time>
      </trkpt>
      <trkpt lat="43.5111" lon="6.34892">
        <ele>315.3</ele>
        <time>2017-12-06T15:16:57Z</time>
      </trkpt>
      <trkpt lat="43.51102" lon="6.34895">
        <ele>315.2</ele>
        <time>2017-12-06T15:17:02Z</time>
      </trkpt>
      <trkpt lat="43.51101" lon="6.34896">
        <ele>315.2</ele>
        <time>2017-12-06T15:17:03Z</time>
      </trkpt>
      <trkpt lat="43.5109" lon="6.34909">
        <ele>315.4</ele>
        <time>2017-12-06T15:17:14Z</time>
      </trkpt>
      <trkpt lat="43.51084" lon="6.34917">
        <ele>315.7</ele>
        <time>2017-12-06T15:17:20Z</time>
      </trkpt>
      <trkpt lat="43.51079" lon="6.34925">
        <ele>316.3</ele>
        <time>2017-12-06T15:17:29Z</time>
      </trkpt>
      <trkpt lat="43.51078" lon="6.34938">
        <ele>316.9</ele>
        <time>2017-12-06T15:17:36Z</time>
      </trkpt>
      <trkpt lat="43.51073" lon="6.34948">
        <ele>317.7</ele>
        <time>2017-12-06T15:17:44Z</time>
      </trkpt>
      <trkpt lat="43.5107" lon="6.34958">
        <ele>318.1</ele>
        <time>2017-12-06T15:17:51Z</time>
      </trkpt>
      <trkpt lat="43.51065" lon="6.34967">
        <ele>318.4</ele>
        <time>2017-12-06T15:17:58Z</time>
      </trkpt>
      <trkpt lat="43.51058" lon="6.34973">
        <ele>318.7</ele>
        <time>2017-12-06T15:18:04Z</time>
      </trkpt>
      <trkpt lat="43.51057" lon="6.34974">
        <ele>318.7</ele>
        <time>2017-12-06T15:18:05Z</time>
      </trkpt>
      <trkpt lat="43.51052" lon="6.34995">
        <ele>320.1</ele>
        <time>2017-12-06T15:18:19Z</time>
      </trkpt>
      <trkpt lat="43.51049" lon="6.35005">
        <ele>320.4</ele>
        <time>2017-12-06T15:18:25Z</time>
      </trkpt>
      <trkpt lat="43.51047" lon="6.35016">
        <ele>321</ele>
        <time>2017-12-06T15:18:32Z</time>
      </trkpt>
      <trkpt lat="43.51042" lon="6.35024">
        <ele>321.6</ele>
        <time>2017-12-06T15:18:38Z</time>
      </trkpt>
      <trkpt lat="43.51035" lon="6.35033">
        <ele>321.9</ele>
        <time>2017-12-06T15:18:44Z</time>
      </trkpt>
      <trkpt lat="43.51029" lon="6.35041">
        <ele>322.4</ele>
        <time>2017-12-06T15:18:52Z</time>
      </trkpt>
      <trkpt lat="43.51028" lon="6.35052">
        <ele>322.5</ele>
        <time>2017-12-06T15:18:59Z</time>
      </trkpt>
      <trkpt lat="43.51024" lon="6.35064">
        <ele>322.8</ele>
        <time>2017-12-06T15:19:06Z</time>
      </trkpt>
      <trkpt lat="43.51023" lon="6.35066">
        <ele>322.9</ele>
        <time>2017-12-06T15:19:07Z</time>
      </trkpt>
      <trkpt lat="43.51017" lon="6.35084">
        <ele>324</ele>
        <time>2017-12-06T15:19:19Z</time>
      </trkpt>
      <trkpt lat="43.51011" lon="6.35093">
        <ele>323.9</ele>
        <time>2017-12-06T15:19:25Z</time>
      </trkpt>
      <trkpt lat="43.51006" lon="6.35102">
        <ele>324.8</ele>
        <time>2017-12-06T15:19:32Z</time>
      </trkpt>
      <trkpt lat="43.51005" lon="6.35112">
        <ele>325.2</ele>
        <time>2017-12-06T15:19:37Z</time>
      </trkpt>
      <trkpt lat="43.51001" lon="6.35122">
        <ele>325.5</ele>
        <time>2017-12-06T15:19:44Z</time>
      </trkpt>
      <trkpt lat="43.50998" lon="6.35132">
        <ele>326</ele>
        <time>2017-12-06T15:19:50Z</time>
      </trkpt>
      <trkpt lat="43.50993" lon="6.35141">
        <ele>326.5</ele>
        <time>2017-12-06T15:19:58Z</time>
      </trkpt>
      <trkpt lat="43.50986" lon="6.35149">
        <ele>327.1</ele>
        <time>2017-12-06T15:20:04Z</time>
      </trkpt>
      <trkpt lat="43.50981" lon="6.35159">
        <ele>327.3</ele>
        <time>2017-12-06T15:20:11Z</time>
      </trkpt>
      <trkpt lat="43.5098" lon="6.3516">
        <ele>327.3</ele>
        <time>2017-12-06T15:20:12Z</time>
      </trkpt>
      <trkpt lat="43.50968" lon="6.35173">
        <ele>327.8</ele>
        <time>2017-12-06T15:20:24Z</time>
      </trkpt>
      <trkpt lat="43.50964" lon="6.35182">
        <ele>328.2</ele>
        <time>2017-12-06T15:20:33Z</time>
      </trkpt>
      <trkpt lat="43.50961" lon="6.35194">
        <ele>328.6</ele>
        <time>2017-12-06T15:20:40Z</time>
      </trkpt>
      <trkpt lat="43.5096" lon="6.35206">
        <ele>328.7</ele>
        <time>2017-12-06T15:20:47Z</time>
      </trkpt>
      <trkpt lat="43.50957" lon="6.35216">
        <ele>328.8</ele>
        <time>2017-12-06T15:20:52Z</time>
      </trkpt>
      <trkpt lat="43.50952" lon="6.35225">
        <ele>328.8</ele>
        <time>2017-12-06T15:20:57Z</time>
      </trkpt>
      <trkpt lat="43.50945" lon="6.35232">
        <ele>329</ele>
        <time>2017-12-06T15:21:02Z</time>
      </trkpt>
      <trkpt lat="43.50939" lon="6.3524">
        <ele>329.2</ele>
        <time>2017-12-06T15:21:08Z</time>
      </trkpt>
      <trkpt lat="43.50932" lon="6.35246">
        <ele>329.1</ele>
        <time>2017-12-06T15:21:13Z</time>
      </trkpt>
      <trkpt lat="43.50931" lon="6.35248">
        <ele>329.1</ele>
        <time>2017-12-06T15:21:14Z</time>
      </trkpt>
      <trkpt lat="43.50923" lon="6.35266">
        <ele>329.8</ele>
        <time>2017-12-06T15:21:27Z</time>
      </trkpt>
      <trkpt lat="43.50917" lon="6.35275">
        <ele>329.7</ele>
        <time>2017-12-06T15:21:34Z</time>
      </trkpt>
      <trkpt lat="43.50914" lon="6.35285">
        <ele>329.3</ele>
        <time>2017-12-06T15:21:39Z</time>
      </trkpt>
      <trkpt lat="43.50909" lon="6.35295">
        <ele>328.7</ele>
        <time>2017-12-06T15:21:46Z</time>
      </trkpt>
      <trkpt lat="43.50903" lon="6.35303">
        <ele>328.5</ele>
        <time>2017-12-06T15:21:52Z</time>
      </trkpt>
      <trkpt lat="43.50897" lon="6.35311">
        <ele>328.4</ele>
        <time>2017-12-06T15:21:57Z</time>
      </trkpt>
      <trkpt lat="43.50894" lon="6.35321">
        <ele>328.3</ele>
        <time>2017-12-06T15:22:03Z</time>
      </trkpt>
      <trkpt lat="43.50895" lon="6.35333">
        <ele>327.9</ele>
        <time>2017-12-06T15:22:10Z</time>
      </trkpt>
      <trkpt lat="43.50887" lon="6.35338">
        <ele>327.6</ele>
        <time>2017-12-06T15:22:16Z</time>
      </trkpt>
      <trkpt lat="43.50886" lon="6.3534">
        <ele>327.5</ele>
        <time>2017-12-06T15:22:17Z</time>
      </trkpt>
      <trkpt lat="43.5088" lon="6.35355">
        <ele>326.8</ele>
        <time>2017-12-06T15:22:32Z</time>
      </trkpt>
      <trkpt lat="43.50872" lon="6.35359">
        <ele>326.5</ele>
        <time>2017-12-06T15:22:38Z</time>
      </trkpt>
      <trkpt lat="43.50865" lon="6.35363">
        <ele>326.2</ele>
        <time>2017-12-06T15:22:42Z</time>
      </trkpt>
      <trkpt lat="43.50857" lon="6.35366">
        <ele>326.5</ele>
        <time>2017-12-06T15:22:47Z</time>
      </trkpt>
      <trkpt lat="43.50851" lon="6.35374">
        <ele>326.3</ele>
        <time>2017-12-06T15:22:56Z</time>
      </trkpt>
      <trkpt lat="43.50844" lon="6.35379">
        <ele>326</ele>
        <time>2017-12-06T15:23:01Z</time>
      </trkpt>
      <trkpt lat="43.50836" lon="6.35383">
        <ele>325.8</ele>
        <time>2017-12-06T15:23:05Z</time>
      </trkpt>
      <trkpt lat="43.50827" lon="6.35387">
        <ele>326.3</ele>
        <time>2017-12-06T15:23:12Z</time>
      </trkpt>
      <trkpt lat="43.50819" lon="6.35388">
        <ele>326</ele>
        <time>2017-12-06T15:23:20Z</time>
      </trkpt>
      <trkpt lat="43.50817" lon="6.35389">
        <ele>326</ele>
        <time>2017-12-06T15:23:21Z</time>
      </trkpt>
      <trkpt lat="43.50805" lon="6.3539">
        <ele>326</ele>
        <time>2017-12-06T15:23:26Z</time>
      </trkpt>
      <trkpt lat="43.50797" lon="6.35392">
        <ele>326.1</ele>
        <time>2017-12-06T15:23:30Z</time>
      </trkpt>
      <trkpt lat="43.50789" lon="6.35395">
        <ele>325.8</ele>
        <time>2017-12-06T15:23:34Z</time>
      </trkpt>
      <trkpt lat="43.50781" lon="6.35397">
        <ele>325.7</ele>
        <time>2017-12-06T15:23:40Z</time>
      </trkpt>
      <trkpt lat="43.50773" lon="6.35399">
        <ele>325.6</ele>
        <time>2017-12-06T15:23:49Z</time>
      </trkpt>
      <trkpt lat="43.50765" lon="6.35402">
        <ele>325.8</ele>
        <time>2017-12-06T15:23:57Z</time>
      </trkpt>
      <trkpt lat="43.50756" lon="6.35404">
        <ele>325.9</ele>
        <time>2017-12-06T15:24:05Z</time>
      </trkpt>
      <trkpt lat="43.50748" lon="6.35406">
        <ele>325.9</ele>
        <time>2017-12-06T15:24:10Z</time>
      </trkpt>
      <trkpt lat="43.50741" lon="6.35409">
        <ele>325.8</ele>
        <time>2017-12-06T15:24:17Z</time>
      </trkpt>
      <trkpt lat="43.50733" lon="6.35412">
        <ele>325.7</ele>
        <time>2017-12-06T15:24:22Z</time>
      </trkpt>
      <trkpt lat="43.50732" lon="6.35412">
        <ele>325.7</ele>
        <time>2017-12-06T15:24:23Z</time>
      </trkpt>
      <trkpt lat="43.50718" lon="6.35417">
        <ele>325.3</ele>
        <time>2017-12-06T15:24:34Z</time>
      </trkpt>
      <trkpt lat="43.5071" lon="6.35421">
        <ele>325.1</ele>
        <time>2017-12-06T15:24:42Z</time>
      </trkpt>
      <trkpt lat="43.50702" lon="6.35426">
        <ele>324.7</ele>
        <time>2017-12-06T15:24:50Z</time>
      </trkpt>
      <trkpt lat="43.50694" lon="6.35429">
        <ele>324.6</ele>
        <time>2017-12-06T15:24:55Z</time>
      </trkpt>
      <trkpt lat="43.50687" lon="6.35433">
        <ele>324.6</ele>
        <time>2017-12-06T15:25:01Z</time>
      </trkpt>
      <trkpt lat="43.50681" lon="6.3544">
        <ele>324.7</ele>
        <time>2017-12-06T15:25:09Z</time>
      </trkpt>
      <trkpt lat="43.50672" lon="6.35444">
        <ele>324.5</ele>
        <time>2017-12-06T15:25:15Z</time>
      </trkpt>
      <trkpt lat="43.50664" lon="6.35447">
        <ele>324.4</ele>
        <time>2017-12-06T15:25:20Z</time>
      </trkpt>
      <trkpt lat="43.50656" lon="6.35449">
        <ele>324.3</ele>
        <time>2017-12-06T15:25:26Z</time>
      </trkpt>
      <trkpt lat="43.50655" lon="6.3545">
        <ele>324.2</ele>
        <time>2017-12-06T15:25:27Z</time>
      </trkpt>
      <trkpt lat="43.50642" lon="6.3546">
        <ele>324.2</ele>
        <time>2017-12-06T15:25:38Z</time>
      </trkpt>
      <trkpt lat="43.50635" lon="6.35467">
        <ele>323.9</ele>
        <time>2017-12-06T15:25:44Z</time>
      </trkpt>
      <trkpt lat="43.50628" lon="6.35475">
        <ele>324</ele>
        <time>2017-12-06T15:25:50Z</time>
      </trkpt>
      <trkpt lat="43.50621" lon="6.35481">
        <ele>323.6</ele>
        <time>2017-12-06T15:25:57Z</time>
      </trkpt>
      <trkpt lat="43.50616" lon="6.35491">
        <ele>323.2</ele>
        <time>2017-12-06T15:26:06Z</time>
      </trkpt>
      <trkpt lat="43.50609" lon="6.35498">
        <ele>323.2</ele>
        <time>2017-12-06T15:26:13Z</time>
      </trkpt>
      <trkpt lat="43.50605" lon="6.35507">
        <ele>323</ele>
        <time>2017-12-06T15:26:20Z</time>
      </trkpt>
      <trkpt lat="43.50598" lon="6.35512">
        <ele>323</ele>
        <time>2017-12-06T15:26:26Z</time>
      </trkpt>
      <trkpt lat="43.50591" lon="6.35518">
        <ele>323.1</ele>
        <time>2017-12-06T15:26:33Z</time>
      </trkpt>
      <trkpt lat="43.5059" lon="6.35518">
        <ele>323</ele>
        <time>2017-12-06T15:26:34Z</time>
      </trkpt>
      <trkpt lat="43.50576" lon="6.35525">
        <ele>323.1</ele>
        <time>2017-12-06T15:26:45Z</time>
      </trkpt>
      <trkpt lat="43.50569" lon="6.35531">
        <ele>323</ele>
        <time>2017-12-06T15:26:50Z</time>
      </trkpt>
      <trkpt lat="43.50563" lon="6.35537">
        <ele>323</ele>
        <time>2017-12-06T15:26:55Z</time>
      </trkpt>
      <trkpt lat="43.50557" lon="6.35543">
        <ele>323</ele>
        <time>2017-12-06T15:27:00Z</time>
      </trkpt>
      <trkpt lat="43.50551" lon="6.35549">
        <ele>323.1</ele>
        <time>2017-12-06T15:27:05Z</time>
      </trkpt>
      <trkpt lat="43.50545" lon="6.35558">
        <ele>323.1</ele>
        <time>2017-12-06T15:27:12Z</time>
      </trkpt>
      <trkpt lat="43.50539" lon="6.35567">
        <ele>323.2</ele>
        <time>2017-12-06T15:27:19Z</time>
      </trkpt>
      <trkpt lat="43.50532" lon="6.35574">
        <ele>323.3</ele>
        <time>2017-12-06T15:27:26Z</time>
      </trkpt>
      <trkpt lat="43.50528" lon="6.35584">
        <ele>323.4</ele>
        <time>2017-12-06T15:27:32Z</time>
      </trkpt>
      <trkpt lat="43.50522" lon="6.35591">
        <ele>323.6</ele>
        <time>2017-12-06T15:27:39Z</time>
      </trkpt>
      <trkpt lat="43.50521" lon="6.35592">
        <ele>323.6</ele>
        <time>2017-12-06T15:27:40Z</time>
      </trkpt>
      <trkpt lat="43.50509" lon="6.35605">
        <ele>323.5</ele>
        <time>2017-12-06T15:27:53Z</time>
      </trkpt>
      <trkpt lat="43.50503" lon="6.35612">
        <ele>323.3</ele>
        <time>2017-12-06T15:27:58Z</time>
      </trkpt>
      <trkpt lat="43.50496" lon="6.35619">
        <ele>323.1</ele>
        <time>2017-12-06T15:28:05Z</time>
      </trkpt>
      <trkpt lat="43.50489" lon="6.35625">
        <ele>323.1</ele>
        <time>2017-12-06T15:28:11Z</time>
      </trkpt>
      <trkpt lat="43.50483" lon="6.35631">
        <ele>322.9</ele>
        <time>2017-12-06T15:28:16Z</time>
      </trkpt>
      <trkpt lat="43.50476" lon="6.35637">
        <ele>322.7</ele>
        <time>2017-12-06T15:28:21Z</time>
      </trkpt>
      <trkpt lat="43.50473" lon="6.35649">
        <ele>322.5</ele>
        <time>2017-12-06T15:28:27Z</time>
      </trkpt>
      <trkpt lat="43.50468" lon="6.35658">
        <ele>322</ele>
        <time>2017-12-06T15:28:34Z</time>
      </trkpt>
      <trkpt lat="43.50465" lon="6.35668">
        <ele>321.3</ele>
        <time>2017-12-06T15:28:41Z</time>
      </trkpt>
      <trkpt lat="43.50465" lon="6.3567">
        <ele>321.3</ele>
        <time>2017-12-06T15:28:42Z</time>
      </trkpt>
      <trkpt lat="43.50455" lon="6.35686">
        <ele>320</ele>
        <time>2017-12-06T15:28:56Z</time>
      </trkpt>
      <trkpt lat="43.50448" lon="6.35692">
        <ele>318.6</ele>
        <time>2017-12-06T15:29:07Z</time>
      </trkpt>
      <trkpt lat="43.50439" lon="6.35695">
        <ele>317.5</ele>
        <time>2017-12-06T15:29:14Z</time>
      </trkpt>
      <trkpt lat="43.50432" lon="6.35698">
        <ele>316.4</ele>
        <time>2017-12-06T15:29:23Z</time>
      </trkpt>
      <trkpt lat="43.50425" lon="6.35703">
        <ele>315.6</ele>
        <time>2017-12-06T15:29:29Z</time>
      </trkpt>
      <trkpt lat="43.50416" lon="6.35706">
        <ele>314.7</ele>
        <time>2017-12-06T15:29:37Z</time>
      </trkpt>
      <trkpt lat="43.50408" lon="6.3571">
        <ele>313.8</ele>
        <time>2017-12-06T15:29:45Z</time>
      </trkpt>
      <trkpt lat="43.50406" lon="6.3571">
        <ele>313.7</ele>
        <time>2017-12-06T15:29:46Z</time>
      </trkpt>
      <trkpt lat="43.50393" lon="6.3572">
        <ele>312.3</ele>
        <time>2017-12-06T15:29:58Z</time>
      </trkpt>
      <trkpt lat="43.50386" lon="6.35725">
        <ele>311.5</ele>
        <time>2017-12-06T15:30:03Z</time>
      </trkpt>
      <trkpt lat="43.50379" lon="6.35733">
        <ele>310.9</ele>
        <time>2017-12-06T15:30:09Z</time>
      </trkpt>
      <trkpt lat="43.50373" lon="6.3574">
        <ele>310.4</ele>
        <time>2017-12-06T15:30:15Z</time>
      </trkpt>
      <trkpt lat="43.50367" lon="6.3575">
        <ele>309.5</ele>
        <time>2017-12-06T15:30:22Z</time>
      </trkpt>
      <trkpt lat="43.50362" lon="6.35759">
        <ele>308.6</ele>
        <time>2017-12-06T15:30:31Z</time>
      </trkpt>
      <trkpt lat="43.50354" lon="6.35765">
        <ele>308.1</ele>
        <time>2017-12-06T15:30:36Z</time>
      </trkpt>
      <trkpt lat="43.50347" lon="6.35771">
        <ele>307.1</ele>
        <time>2017-12-06T15:30:43Z</time>
      </trkpt>
      <trkpt lat="43.5034" lon="6.35778">
        <ele>306.6</ele>
        <time>2017-12-06T15:30:49Z</time>
      </trkpt>
      <trkpt lat="43.50339" lon="6.35778">
        <ele>306.5</ele>
        <time>2017-12-06T15:30:50Z</time>
      </trkpt>
      <trkpt lat="43.50328" lon="6.35796">
        <ele>304.7</ele>
        <time>2017-12-06T15:31:08Z</time>
      </trkpt>
      <trkpt lat="43.50324" lon="6.35806">
        <ele>302.4</ele>
        <time>2017-12-06T15:31:26Z</time>
      </trkpt>
      <trkpt lat="43.50316" lon="6.35811">
        <ele>301.3</ele>
        <time>2017-12-06T15:31:37Z</time>
      </trkpt>
      <trkpt lat="43.50307" lon="6.35813">
        <ele>299.9</ele>
        <time>2017-12-06T15:31:52Z</time>
      </trkpt>
      <trkpt lat="43.50307" lon="6.35814">
        <ele>299.9</ele>
        <time>2017-12-06T15:31:53Z</time>
      </trkpt>
      <trkpt lat="43.50291" lon="6.3582">
        <ele>297.8</ele>
        <time>2017-12-06T15:32:26Z</time>
      </trkpt>
      <trkpt lat="43.50283" lon="6.35824">
        <ele>296.5</ele>
        <time>2017-12-06T15:32:36Z</time>
      </trkpt>
      <trkpt lat="43.50275" lon="6.35827">
        <ele>295.3</ele>
        <time>2017-12-06T15:32:44Z</time>
      </trkpt>
      <trkpt lat="43.50266" lon="6.35832">
        <ele>294</ele>
        <time>2017-12-06T15:32:50Z</time>
      </trkpt>
      <trkpt lat="43.50259" lon="6.35836">
        <ele>292.8</ele>
        <time>2017-12-06T15:32:56Z</time>
      </trkpt>
      <trkpt lat="43.50258" lon="6.35836">
        <ele>292.6</ele>
        <time>2017-12-06T15:32:57Z</time>
      </trkpt>
      <trkpt lat="43.50247" lon="6.35851">
        <ele>290.2</ele>
        <time>2017-12-06T15:33:10Z</time>
      </trkpt>
      <trkpt lat="43.50239" lon="6.35856">
        <ele>289.3</ele>
        <time>2017-12-06T15:33:17Z</time>
      </trkpt>
      <trkpt lat="43.50232" lon="6.35864">
        <ele>288.3</ele>
        <time>2017-12-06T15:33:27Z</time>
      </trkpt>
      <trkpt lat="43.50224" lon="6.35869">
        <ele>287.2</ele>
        <time>2017-12-06T15:33:35Z</time>
      </trkpt>
      <trkpt lat="43.50217" lon="6.35875">
        <ele>286.5</ele>
        <time>2017-12-06T15:33:43Z</time>
      </trkpt>
      <trkpt lat="43.50209" lon="6.3588">
        <ele>285.7</ele>
        <time>2017-12-06T15:33:50Z</time>
      </trkpt>
      <trkpt lat="43.50202" lon="6.35884">
        <ele>285.1</ele>
        <time>2017-12-06T15:33:56Z</time>
      </trkpt>
      <trkpt lat="43.50194" lon="6.35889">
        <ele>284.6</ele>
        <time>2017-12-06T15:34:03Z</time>
      </trkpt>
      <trkpt lat="43.50194" lon="6.3589">
        <ele>284.5</ele>
        <time>2017-12-06T15:34:04Z</time>
      </trkpt>
      <trkpt lat="43.50184" lon="6.35907">
        <ele>283.2</ele>
        <time>2017-12-06T15:34:29Z</time>
      </trkpt>
      <trkpt lat="43.50175" lon="6.35912">
        <ele>283.1</ele>
        <time>2017-12-06T15:34:46Z</time>
      </trkpt>
      <trkpt lat="43.50168" lon="6.35919">
        <ele>282</ele>
        <time>2017-12-06T15:35:35Z</time>
      </trkpt>
      <trkpt lat="43.50168" lon="6.35919">
        <ele>282</ele>
        <time>2017-12-06T15:35:36Z</time>
      </trkpt>
      <trkpt lat="43.50157" lon="6.35937">
        <ele>281</ele>
        <time>2017-12-06T15:36:10Z</time>
      </trkpt>
      <trkpt lat="43.50149" lon="6.35942">
        <ele>280.5</ele>
        <time>2017-12-06T15:36:20Z</time>
      </trkpt>
      <trkpt lat="43.50142" lon="6.35946">
        <ele>279.1</ele>
        <time>2017-12-06T15:36:29Z</time>
      </trkpt>
      <trkpt lat="43.50134" lon="6.3595">
        <ele>278.6</ele>
        <time>2017-12-06T15:36:35Z</time>
      </trkpt>
      <trkpt lat="43.50127" lon="6.35956">
        <ele>277.3</ele>
        <time>2017-12-06T15:36:43Z</time>
      </trkpt>
      <trkpt lat="43.50126" lon="6.35957">
        <ele>277.2</ele>
        <time>2017-12-06T15:36:44Z</time>
      </trkpt>
      <trkpt lat="43.50112" lon="6.35966">
        <ele>275.9</ele>
        <time>2017-12-06T15:36:56Z</time>
      </trkpt>
      <trkpt lat="43.50105" lon="6.35973">
        <ele>275.2</ele>
        <time>2017-12-06T15:37:03Z</time>
      </trkpt>
      <trkpt lat="43.50098" lon="6.3598">
        <ele>274.3</ele>
        <time>2017-12-06T15:37:10Z</time>
      </trkpt>
      <trkpt lat="43.5009" lon="6.35985">
        <ele>273.5</ele>
        <time>2017-12-06T15:37:16Z</time>
      </trkpt>
      <trkpt lat="43.50082" lon="6.35989">
        <ele>272.3</ele>
        <time>2017-12-06T15:37:24Z</time>
      </trkpt>
      <trkpt lat="43.50074" lon="6.35995">
        <ele>271.8</ele>
        <time>2017-12-06T15:37:31Z</time>
      </trkpt>
      <trkpt lat="43.50067" lon="6.36">
        <ele>270.8</ele>
        <time>2017-12-06T15:37:39Z</time>
      </trkpt>
      <trkpt lat="43.50059" lon="6.36004">
        <ele>269.8</ele>
        <time>2017-12-06T15:37:49Z</time>
      </trkpt>
      <trkpt lat="43.50058" lon="6.36004">
        <ele>269.7</ele>
        <time>2017-12-06T15:37:50Z</time>
      </trkpt>
      <trkpt lat="43.50043" lon="6.3601">
        <ele>267.9</ele>
        <time>2017-12-06T15:38:05Z</time>
      </trkpt>
      <trkpt lat="43.50036" lon="6.36014">
        <ele>267.6</ele>
        <time>2017-12-06T15:38:11Z</time>
      </trkpt>
      <trkpt lat="43.50027" lon="6.36017">
        <ele>266.7</ele>
        <time>2017-12-06T15:38:20Z</time>
      </trkpt>
      <trkpt lat="43.5002" lon="6.36022">
        <ele>266.4</ele>
        <time>2017-12-06T15:38:28Z</time>
      </trkpt>
      <trkpt lat="43.50012" lon="6.36027">
        <ele>266.1</ele>
        <time>2017-12-06T15:38:50Z</time>
      </trkpt>
      <trkpt lat="43.50012" lon="6.36027">
        <ele>266.1</ele>
        <time>2017-12-06T15:38:51Z</time>
      </trkpt>
      <trkpt lat="43.50003" lon="6.36023">
        <ele>265.8</ele>
        <time>2017-12-06T15:40:09Z</time>
      </trkpt>
      <trkpt lat="43.49986" lon="6.36023">
        <ele>264.1</ele>
        <time>2017-12-06T15:40:51Z</time>
      </trkpt>
      <trkpt lat="43.49977" lon="6.36025">
        <ele>263.7</ele>
        <time>2017-12-06T15:41:01Z</time>
      </trkpt>
      <trkpt lat="43.4997" lon="6.36027">
        <ele>263.7</ele>
        <time>2017-12-06T15:41:07Z</time>
      </trkpt>
      <trkpt lat="43.49962" lon="6.36031">
        <ele>263.6</ele>
        <time>2017-12-06T15:41:14Z</time>
      </trkpt>
      <trkpt lat="43.49961" lon="6.36031">
        <ele>263.6</ele>
        <time>2017-12-06T15:41:15Z</time>
      </trkpt>
      <trkpt lat="43.49947" lon="6.36037">
        <ele>263.1</ele>
        <time>2017-12-06T15:41:29Z</time>
      </trkpt>
      <trkpt lat="43.49938" lon="6.36039">
        <ele>262.7</ele>
        <time>2017-12-06T15:41:36Z</time>
      </trkpt>
      <trkpt lat="43.4993" lon="6.3604">
        <ele>262.4</ele>
        <time>2017-12-06T15:41:44Z</time>
      </trkpt>
      <trkpt lat="43.49922" lon="6.36042">
        <ele>262.3</ele>
        <time>2017-12-06T15:41:50Z</time>
      </trkpt>
      <trkpt lat="43.49914" lon="6.36044">
        <ele>262</ele>
        <time>2017-12-06T15:41:57Z</time>
      </trkpt>
      <trkpt lat="43.49906" lon="6.36045">
        <ele>261.8</ele>
        <time>2017-12-06T15:42:05Z</time>
      </trkpt>
      <trkpt lat="43.49897" lon="6.36048">
        <ele>261.3</ele>
        <time>2017-12-06T15:42:12Z</time>
      </trkpt>
      <trkpt lat="43.49889" lon="6.3605">
        <ele>260.6</ele>
        <time>2017-12-06T15:42:18Z</time>
      </trkpt>
      <trkpt lat="43.49888" lon="6.3605">
        <ele>260.5</ele>
        <time>2017-12-06T15:42:19Z</time>
      </trkpt>
      <trkpt lat="43.49874" lon="6.3605">
        <ele>259.5</ele>
        <time>2017-12-06T15:42:33Z</time>
      </trkpt>
      <trkpt lat="43.49867" lon="6.36041">
        <ele>258.8</ele>
        <time>2017-12-06T15:42:43Z</time>
      </trkpt>
      <trkpt lat="43.49861" lon="6.36034">
        <ele>258.7</ele>
        <time>2017-12-06T15:42:50Z</time>
      </trkpt>
      <trkpt lat="43.49856" lon="6.36025">
        <ele>258.3</ele>
        <time>2017-12-06T15:42:59Z</time>
      </trkpt>
      <trkpt lat="43.49847" lon="6.36021">
        <ele>258</ele>
        <time>2017-12-06T15:43:06Z</time>
      </trkpt>
      <trkpt lat="43.49839" lon="6.36019">
        <ele>257.9</ele>
        <time>2017-12-06T15:43:12Z</time>
      </trkpt>
      <trkpt lat="43.49831" lon="6.36016">
        <ele>257.6</ele>
        <time>2017-12-06T15:43:18Z</time>
      </trkpt>
      <trkpt lat="43.49822" lon="6.36015">
        <ele>257.2</ele>
        <time>2017-12-06T15:43:26Z</time>
      </trkpt>
      <trkpt lat="43.49821" lon="6.36014">
        <ele>257.2</ele>
        <time>2017-12-06T15:43:27Z</time>
      </trkpt>
      <trkpt lat="43.49806" lon="6.36012">
        <ele>256.9</ele>
        <time>2017-12-06T15:43:45Z</time>
      </trkpt>
      <trkpt lat="43.49798" lon="6.36016">
        <ele>256.9</ele>
        <time>2017-12-06T15:43:51Z</time>
      </trkpt>
      <trkpt lat="43.49789" lon="6.36017">
        <ele>256.8</ele>
        <time>2017-12-06T15:44:02Z</time>
      </trkpt>
      <trkpt lat="43.49781" lon="6.36022">
        <ele>256.8</ele>
        <time>2017-12-06T15:44:10Z</time>
      </trkpt>
      <trkpt lat="43.49775" lon="6.36028">
        <ele>256.8</ele>
        <time>2017-12-06T15:44:15Z</time>
      </trkpt>
      <trkpt lat="43.49769" lon="6.36036">
        <ele>256.9</ele>
        <time>2017-12-06T15:44:21Z</time>
      </trkpt>
      <trkpt lat="43.49762" lon="6.36043">
        <ele>256.8</ele>
        <time>2017-12-06T15:44:27Z</time>
      </trkpt>
      <trkpt lat="43.49761" lon="6.36044">
        <ele>256.7</ele>
        <time>2017-12-06T15:44:28Z</time>
      </trkpt>
      <trkpt lat="43.49748" lon="6.36055">
        <ele>256.5</ele>
        <time>2017-12-06T15:44:40Z</time>
      </trkpt>
      <trkpt lat="43.4974" lon="6.3606">
        <ele>256.2</ele>
        <time>2017-12-06T15:44:47Z</time>
      </trkpt>
      <trkpt lat="43.49733" lon="6.36067">
        <ele>255.7</ele>
        <time>2017-12-06T15:44:54Z</time>
      </trkpt>
      <trkpt lat="43.49727" lon="6.36074">
        <ele>255.2</ele>
        <time>2017-12-06T15:45:02Z</time>
      </trkpt>
      <trkpt lat="43.49719" lon="6.3608">
        <ele>254.8</ele>
        <time>2017-12-06T15:45:11Z</time>
      </trkpt>
      <trkpt lat="43.49711" lon="6.36083">
        <ele>254.6</ele>
        <time>2017-12-06T15:45:18Z</time>
      </trkpt>
      <trkpt lat="43.49704" lon="6.36089">
        <ele>254.3</ele>
        <time>2017-12-06T15:45:24Z</time>
      </trkpt>
      <trkpt lat="43.49698" lon="6.36097">
        <ele>254.2</ele>
        <time>2017-12-06T15:45:31Z</time>
      </trkpt>
      <trkpt lat="43.49697" lon="6.36099">
        <ele>254.2</ele>
        <time>2017-12-06T15:45:32Z</time>
      </trkpt>
      <trkpt lat="43.49686" lon="6.36113">
        <ele>253.2</ele>
        <time>2017-12-06T15:45:47Z</time>
      </trkpt>
      <trkpt lat="43.4968" lon="6.3612">
        <ele>252.5</ele>
        <time>2017-12-06T15:45:53Z</time>
      </trkpt>
      <trkpt lat="43.49673" lon="6.36127">
        <ele>252</ele>
        <time>2017-12-06T15:45:59Z</time>
      </trkpt>
      <trkpt lat="43.49667" lon="6.36134">
        <ele>251.5</ele>
        <time>2017-12-06T15:46:06Z</time>
      </trkpt>
      <trkpt lat="43.49662" lon="6.36143">
        <ele>251.1</ele>
        <time>2017-12-06T15:46:11Z</time>
      </trkpt>
      <trkpt lat="43.49656" lon="6.36152">
        <ele>250.4</ele>
        <time>2017-12-06T15:46:17Z</time>
      </trkpt>
      <trkpt lat="43.49651" lon="6.36161">
        <ele>249.4</ele>
        <time>2017-12-06T15:46:23Z</time>
      </trkpt>
      <trkpt lat="43.49646" lon="6.36171">
        <ele>248.2</ele>
        <time>2017-12-06T15:46:30Z</time>
      </trkpt>
      <trkpt lat="43.4964" lon="6.36179">
        <ele>247.3</ele>
        <time>2017-12-06T15:46:39Z</time>
      </trkpt>
      <trkpt lat="43.49639" lon="6.36181">
        <ele>247.2</ele>
        <time>2017-12-06T15:46:40Z</time>
      </trkpt>
      <trkpt lat="43.49628" lon="6.36197">
        <ele>246</ele>
        <time>2017-12-06T15:46:53Z</time>
      </trkpt>
      <trkpt lat="43.49622" lon="6.36205">
        <ele>245.7</ele>
        <time>2017-12-06T15:47:00Z</time>
      </trkpt>
      <trkpt lat="43.49618" lon="6.36215">
        <ele>245.3</ele>
        <time>2017-12-06T15:47:08Z</time>
      </trkpt>
      <trkpt lat="43.49612" lon="6.36223">
        <ele>244.7</ele>
        <time>2017-12-06T15:47:16Z</time>
      </trkpt>
      <trkpt lat="43.49607" lon="6.36233">
        <ele>243.9</ele>
        <time>2017-12-06T15:47:25Z</time>
      </trkpt>
      <trkpt lat="43.49599" lon="6.36239">
        <ele>243.3</ele>
        <time>2017-12-06T15:47:36Z</time>
      </trkpt>
      <trkpt lat="43.49592" lon="6.36245">
        <ele>242.8</ele>
        <time>2017-12-06T15:47:46Z</time>
      </trkpt>
      <trkpt lat="43.49591" lon="6.36245">
        <ele>242.8</ele>
        <time>2017-12-06T15:47:47Z</time>
      </trkpt>
      <trkpt lat="43.49576" lon="6.36251">
        <ele>241.8</ele>
        <time>2017-12-06T15:48:08Z</time>
      </trkpt>
      <trkpt lat="43.4957" lon="6.3626">
        <ele>241.5</ele>
        <time>2017-12-06T15:48:14Z</time>
      </trkpt>
      <trkpt lat="43.49567" lon="6.3627">
        <ele>241.3</ele>
        <time>2017-12-06T15:48:20Z</time>
      </trkpt>
      <trkpt lat="43.49562" lon="6.3628">
        <ele>241.1</ele>
        <time>2017-12-06T15:48:27Z</time>
      </trkpt>
      <trkpt lat="43.49557" lon="6.36288">
        <ele>240.4</ele>
        <time>2017-12-06T15:48:34Z</time>
      </trkpt>
      <trkpt lat="43.49552" lon="6.36298">
        <ele>239.8</ele>
        <time>2017-12-06T15:48:43Z</time>
      </trkpt>
      <trkpt lat="43.49549" lon="6.36308">
        <ele>238.9</ele>
        <time>2017-12-06T15:48:54Z</time>
      </trkpt>
      <trkpt lat="43.49549" lon="6.36309">
        <ele>238.9</ele>
        <time>2017-12-06T15:48:55Z</time>
      </trkpt>
      <trkpt lat="43.49551" lon="6.36332">
        <ele>238.2</ele>
        <time>2017-12-06T15:49:21Z</time>
      </trkpt>
      <trkpt lat="43.49547" lon="6.36342">
        <ele>238</ele>
        <time>2017-12-06T15:49:46Z</time>
      </trkpt>
      <trkpt lat="43.49539" lon="6.36348">
        <ele>237.8</ele>
        <time>2017-12-06T15:50:28Z</time>
      </trkpt>
      <trkpt lat="43.49539" lon="6.36349">
        <ele>237.8</ele>
        <time>2017-12-06T15:50:29Z</time>
      </trkpt>
      <trkpt lat="43.49522" lon="6.36354">
        <ele>236.9</ele>
        <time>2017-12-06T15:51:12Z</time>
      </trkpt>
      <trkpt lat="43.49516" lon="6.36361">
        <ele>234.9</ele>
        <time>2017-12-06T15:51:41Z</time>
      </trkpt>
      <trkpt lat="43.49515" lon="6.36362">
        <ele>234.8</ele>
        <time>2017-12-06T15:51:42Z</time>
      </trkpt>
      <trkpt lat="43.49504" lon="6.36378">
        <ele>233.6</ele>
        <time>2017-12-06T15:51:56Z</time>
      </trkpt>
      <trkpt lat="43.49498" lon="6.36385">
        <ele>233.2</ele>
        <time>2017-12-06T15:52:03Z</time>
      </trkpt>
      <trkpt lat="43.49492" lon="6.36393">
        <ele>232.8</ele>
        <time>2017-12-06T15:52:09Z</time>
      </trkpt>
      <trkpt lat="43.49488" lon="6.36403">
        <ele>232.5</ele>
        <time>2017-12-06T15:52:16Z</time>
      </trkpt>
      <trkpt lat="43.49485" lon="6.36414">
        <ele>232.2</ele>
        <time>2017-12-06T15:52:22Z</time>
      </trkpt>
      <trkpt lat="43.49483" lon="6.36424">
        <ele>232.2</ele>
        <time>2017-12-06T15:52:29Z</time>
      </trkpt>
      <trkpt lat="43.49484" lon="6.36435">
        <ele>232.2</ele>
        <time>2017-12-06T15:52:35Z</time>
      </trkpt>
      <trkpt lat="43.49483" lon="6.36447">
        <ele>232.2</ele>
        <time>2017-12-06T15:52:43Z</time>
      </trkpt>
      <trkpt lat="43.49483" lon="6.36448">
        <ele>232.2</ele>
        <time>2017-12-06T15:52:44Z</time>
      </trkpt>
      <trkpt lat="43.49483" lon="6.36469">
        <ele>231.8</ele>
        <time>2017-12-06T15:52:56Z</time>
      </trkpt>
      <trkpt lat="43.49484" lon="6.36481">
        <ele>231.2</ele>
        <time>2017-12-06T15:53:09Z</time>
      </trkpt>
      <trkpt lat="43.49484" lon="6.36492">
        <ele>230.7</ele>
        <time>2017-12-06T15:53:17Z</time>
      </trkpt>
      <trkpt lat="43.49486" lon="6.36505">
        <ele>230.3</ele>
        <time>2017-12-06T15:53:24Z</time>
      </trkpt>
      <trkpt lat="43.49484" lon="6.36517">
        <ele>229.5</ele>
        <time>2017-12-06T15:53:32Z</time>
      </trkpt>
      <trkpt lat="43.49482" lon="6.36529">
        <ele>229</ele>
        <time>2017-12-06T15:53:40Z</time>
      </trkpt>
      <trkpt lat="43.49481" lon="6.36541">
        <ele>228.5</ele>
        <time>2017-12-06T15:53:46Z</time>
      </trkpt>
      <trkpt lat="43.49481" lon="6.36543">
        <ele>228.5</ele>
        <time>2017-12-06T15:53:47Z</time>
      </trkpt>
      <trkpt lat="43.49477" lon="6.36562">
        <ele>227.9</ele>
        <time>2017-12-06T15:53:57Z</time>
      </trkpt>
      <trkpt lat="43.49473" lon="6.36573">
        <ele>227.4</ele>
        <time>2017-12-06T15:54:03Z</time>
      </trkpt>
      <trkpt lat="43.4947" lon="6.36584">
        <ele>227</ele>
        <time>2017-12-06T15:54:09Z</time>
      </trkpt>
      <trkpt lat="43.49466" lon="6.36595">
        <ele>226.2</ele>
        <time>2017-12-06T15:54:16Z</time>
      </trkpt>
      <trkpt lat="43.49465" lon="6.36605">
        <ele>225.8</ele>
        <time>2017-12-06T15:54:21Z</time>
      </trkpt>
      <trkpt lat="43.49463" lon="6.36616">
        <ele>225.5</ele>
        <time>2017-12-06T15:54:27Z</time>
      </trkpt>
      <trkpt lat="43.49462" lon="6.36627">
        <ele>224.6</ele>
        <time>2017-12-06T15:54:33Z</time>
      </trkpt>
      <trkpt lat="43.49461" lon="6.36639">
        <ele>223.7</ele>
        <time>2017-12-06T15:54:40Z</time>
      </trkpt>
      <trkpt lat="43.49458" lon="6.3665">
        <ele>222.8</ele>
        <time>2017-12-06T15:54:47Z</time>
      </trkpt>
      <trkpt lat="43.49458" lon="6.36652">
        <ele>222.7</ele>
        <time>2017-12-06T15:54:48Z</time>
      </trkpt>
      <trkpt lat="43.49456" lon="6.36674">
        <ele>220.6</ele>
        <time>2017-12-06T15:55:02Z</time>
      </trkpt>
      <trkpt lat="43.49455" lon="6.36686">
        <ele>219.1</ele>
        <time>2017-12-06T15:55:13Z</time>
      </trkpt>
      <trkpt lat="43.49455" lon="6.36697">
        <ele>218.3</ele>
        <time>2017-12-06T15:55:23Z</time>
      </trkpt>
      <trkpt lat="43.49454" lon="6.36708">
        <ele>217.1</ele>
        <time>2017-12-06T15:55:31Z</time>
      </trkpt>
      <trkpt lat="43.49456" lon="6.36721">
        <ele>216</ele>
        <time>2017-12-06T15:55:40Z</time>
      </trkpt>
      <trkpt lat="43.4945" lon="6.36729">
        <ele>215.1</ele>
        <time>2017-12-06T15:55:48Z</time>
      </trkpt>
      <trkpt lat="43.49449" lon="6.3673">
        <ele>215</ele>
        <time>2017-12-06T15:55:49Z</time>
      </trkpt>
      <trkpt lat="43.49436" lon="6.36741">
        <ele>214.2</ele>
        <time>2017-12-06T15:56:05Z</time>
      </trkpt>
      <trkpt lat="43.49428" lon="6.36744">
        <ele>214</ele>
        <time>2017-12-06T15:56:10Z</time>
      </trkpt>
      <trkpt lat="43.49421" lon="6.36749">
        <ele>213.9</ele>
        <time>2017-12-06T15:56:17Z</time>
      </trkpt>
      <trkpt lat="43.49412" lon="6.36753">
        <ele>212.9</ele>
        <time>2017-12-06T15:56:28Z</time>
      </trkpt>
      <trkpt lat="43.49404" lon="6.36756">
        <ele>212.4</ele>
        <time>2017-12-06T15:56:36Z</time>
      </trkpt>
      <trkpt lat="43.49396" lon="6.36762">
        <ele>212.1</ele>
        <time>2017-12-06T15:56:47Z</time>
      </trkpt>
      <trkpt lat="43.49389" lon="6.36767">
        <ele>211.4</ele>
        <time>2017-12-06T15:56:57Z</time>
      </trkpt>
      <trkpt lat="43.49388" lon="6.36767">
        <ele>211.4</ele>
        <time>2017-12-06T15:56:58Z</time>
      </trkpt>
      <trkpt lat="43.49373" lon="6.36775">
        <ele>210.6</ele>
        <time>2017-12-06T15:57:15Z</time>
      </trkpt>
      <trkpt lat="43.49365" lon="6.36777">
        <ele>210.4</ele>
        <time>2017-12-06T15:57:21Z</time>
      </trkpt>
      <trkpt lat="43.49357" lon="6.36778">
        <ele>210</ele>
        <time>2017-12-06T15:57:28Z</time>
      </trkpt>
      <trkpt lat="43.49349" lon="6.36781">
        <ele>209.6</ele>
        <time>2017-12-06T15:57:35Z</time>
      </trkpt>
      <trkpt lat="43.49341" lon="6.36784">
        <ele>209.2</ele>
        <time>2017-12-06T15:57:41Z</time>
      </trkpt>
      <trkpt lat="43.49333" lon="6.36788">
        <ele>208.9</ele>
        <time>2017-12-06T15:57:52Z</time>
      </trkpt>
      <trkpt lat="43.49325" lon="6.36788">
        <ele>208.3</ele>
        <time>2017-12-06T15:58:00Z</time>
      </trkpt>
      <trkpt lat="43.49324" lon="6.36788">
        <ele>208.3</ele>
        <time>2017-12-06T15:58:01Z</time>
      </trkpt>
      <trkpt lat="43.49309" lon="6.36788">
        <ele>207.9</ele>
        <time>2017-12-06T15:58:11Z</time>
      </trkpt>
      <trkpt lat="43.49303" lon="6.36797">
        <ele>207.4</ele>
        <time>2017-12-06T15:58:23Z</time>
      </trkpt>
      <trkpt lat="43.49296" lon="6.36801">
        <ele>207.2</ele>
        <time>2017-12-06T15:58:29Z</time>
      </trkpt>
      <trkpt lat="43.49288" lon="6.36804">
        <ele>207.1</ele>
        <time>2017-12-06T15:58:34Z</time>
      </trkpt>
      <trkpt lat="43.4928" lon="6.36806">
        <ele>206.8</ele>
        <time>2017-12-06T15:58:40Z</time>
      </trkpt>
      <trkpt lat="43.49273" lon="6.36813">
        <ele>206.1</ele>
        <time>2017-12-06T15:58:49Z</time>
      </trkpt>
      <trkpt lat="43.49266" lon="6.36818">
        <ele>205.4</ele>
        <time>2017-12-06T15:58:59Z</time>
      </trkpt>
      <trkpt lat="43.49257" lon="6.36821">
        <ele>205.3</ele>
        <time>2017-12-06T15:59:08Z</time>
      </trkpt>
      <trkpt lat="43.49257" lon="6.36821">
        <ele>205.3</ele>
        <time>2017-12-06T15:59:09Z</time>
      </trkpt>
      <trkpt lat="43.49256" lon="6.36828">
        <ele>204.6</ele>
        <time>2017-12-06T16:00:41Z</time>
      </trkpt>
    </trkseg>
  </trk>
</gpx>